<?xml version="1.0" encoding="UTF-8" standalone="no" ?>
<gpx xmlns="http://www.topografix.com/GPX/1/1" xmlns:xsi="http://www.w3.org/2001/XMLSchema-instance" xsi:schemaLocation="http://www.topografix.com/GPX/1/1 http://www.topografix.com/GPX/1/1/gpx.xsd" version="1.1" creator="VisuGPX - https://www.visugpx.com">
  <metadata>
    <name>Le Chastelas - Grospierres</name>
    <desc><![CDATA[Courte exploration - découverte du village abandonné du Chastelas - Grospierres]]></desc>
  </metadata>
  <trk>
    <name><![CDATA[Le Chastelas - Grospierres]]></name>
    <trkseg>
      <trkpt lat="44.38967" lon="4.2873">
        <ele>172.1</ele>
        <time>2023-02-12T08:48:23Z</time>
      </trkpt>
      <trkpt lat="44.38968" lon="4.2873">
        <ele>172.3</ele>
        <time>2023-02-12T08:48:54Z</time>
      </trkpt>
      <trkpt lat="44.38968" lon="4.2873">
        <ele>172.2</ele>
        <time>2023-02-12T08:49:25Z</time>
      </trkpt>
      <trkpt lat="44.38969" lon="4.28731">
        <ele>172.1</ele>
        <time>2023-02-12T08:49:56Z</time>
      </trkpt>
      <trkpt lat="44.38969" lon="4.28731">
        <ele>171.8</ele>
        <time>2023-02-12T08:50:26Z</time>
      </trkpt>
      <trkpt lat="44.3897" lon="4.28739">
        <ele>172</ele>
        <time>2023-02-12T08:50:56Z</time>
      </trkpt>
      <trkpt lat="44.3897" lon="4.28741">
        <ele>171.7</ele>
        <time>2023-02-12T08:51:27Z</time>
      </trkpt>
      <trkpt lat="44.38958" lon="4.28774">
        <ele>174.7</ele>
        <time>2023-02-12T08:51:58Z</time>
      </trkpt>
      <trkpt lat="44.38939" lon="4.28796">
        <ele>179.5</ele>
        <time>2023-02-12T08:52:28Z</time>
      </trkpt>
      <trkpt lat="44.3892" lon="4.28813">
        <ele>184.1</ele>
        <time>2023-02-12T08:52:58Z</time>
      </trkpt>
      <trkpt lat="44.38909" lon="4.28821">
        <ele>186.6</ele>
        <time>2023-02-12T08:53:29Z</time>
      </trkpt>
      <trkpt lat="44.38895" lon="4.28829">
        <ele>187.8</ele>
        <time>2023-02-12T08:53:59Z</time>
      </trkpt>
      <trkpt lat="44.38874" lon="4.28836">
        <ele>191.9</ele>
        <time>2023-02-12T08:54:30Z</time>
      </trkpt>
      <trkpt lat="44.38869" lon="4.28836">
        <ele>193.2</ele>
        <time>2023-02-12T08:55:00Z</time>
      </trkpt>
      <trkpt lat="44.38842" lon="4.28841">
        <ele>197.2</ele>
        <time>2023-02-12T08:55:30Z</time>
      </trkpt>
      <trkpt lat="44.38834" lon="4.28838">
        <ele>198.9</ele>
        <time>2023-02-12T08:56:01Z</time>
      </trkpt>
      <trkpt lat="44.38832" lon="4.28839">
        <ele>198.6</ele>
        <time>2023-02-12T08:56:31Z</time>
      </trkpt>
      <trkpt lat="44.38821" lon="4.28845">
        <ele>200.1</ele>
        <time>2023-02-12T08:57:01Z</time>
      </trkpt>
      <trkpt lat="44.38813" lon="4.28861">
        <ele>201.5</ele>
        <time>2023-02-12T08:57:32Z</time>
      </trkpt>
      <trkpt lat="44.38799" lon="4.28852">
        <ele>202.5</ele>
        <time>2023-02-12T08:58:02Z</time>
      </trkpt>
      <trkpt lat="44.38796" lon="4.2885">
        <ele>202</ele>
        <time>2023-02-12T08:58:32Z</time>
      </trkpt>
      <trkpt lat="44.38768" lon="4.2885">
        <ele>205.2</ele>
        <time>2023-02-12T08:59:02Z</time>
      </trkpt>
      <trkpt lat="44.38749" lon="4.2884">
        <ele>207.6</ele>
        <time>2023-02-12T08:59:32Z</time>
      </trkpt>
      <trkpt lat="44.38728" lon="4.2883">
        <ele>210.9</ele>
        <time>2023-02-12T09:00:03Z</time>
      </trkpt>
      <trkpt lat="44.3872" lon="4.28832">
        <ele>211.6</ele>
        <time>2023-02-12T09:00:33Z</time>
      </trkpt>
      <trkpt lat="44.38711" lon="4.28831">
        <ele>213.1</ele>
        <time>2023-02-12T09:01:03Z</time>
      </trkpt>
      <trkpt lat="44.38693" lon="4.28838">
        <ele>214.7</ele>
        <time>2023-02-12T09:01:33Z</time>
      </trkpt>
      <trkpt lat="44.38679" lon="4.28839">
        <ele>216</ele>
        <time>2023-02-12T09:02:03Z</time>
      </trkpt>
      <trkpt lat="44.38652" lon="4.28852">
        <ele>220.1</ele>
        <time>2023-02-12T09:02:34Z</time>
      </trkpt>
      <trkpt lat="44.38648" lon="4.28856">
        <ele>221</ele>
        <time>2023-02-12T09:03:04Z</time>
      </trkpt>
      <trkpt lat="44.38647" lon="4.28856">
        <ele>221.2</ele>
        <time>2023-02-12T09:03:35Z</time>
      </trkpt>
      <trkpt lat="44.38645" lon="4.28864">
        <ele>222.2</ele>
        <time>2023-02-12T09:04:05Z</time>
      </trkpt>
      <trkpt lat="44.38638" lon="4.28898">
        <ele>228.2</ele>
        <time>2023-02-12T09:04:35Z</time>
      </trkpt>
      <trkpt lat="44.38612" lon="4.28885">
        <ele>230</ele>
        <time>2023-02-12T09:05:06Z</time>
      </trkpt>
      <trkpt lat="44.38597" lon="4.28897">
        <ele>233.5</ele>
        <time>2023-02-12T09:05:36Z</time>
      </trkpt>
      <trkpt lat="44.38595" lon="4.28903">
        <ele>234.2</ele>
        <time>2023-02-12T09:06:06Z</time>
      </trkpt>
      <trkpt lat="44.38593" lon="4.28909">
        <ele>235.1</ele>
        <time>2023-02-12T09:06:37Z</time>
      </trkpt>
      <trkpt lat="44.38575" lon="4.28932">
        <ele>241.4</ele>
        <time>2023-02-12T09:07:08Z</time>
      </trkpt>
      <trkpt lat="44.38568" lon="4.2895">
        <ele>245.4</ele>
        <time>2023-02-12T09:07:38Z</time>
      </trkpt>
      <trkpt lat="44.38557" lon="4.28967">
        <ele>250</ele>
        <time>2023-02-12T09:08:08Z</time>
      </trkpt>
      <trkpt lat="44.38565" lon="4.28968">
        <ele>250.7</ele>
        <time>2023-02-12T09:08:39Z</time>
      </trkpt>
      <trkpt lat="44.38589" lon="4.28963">
        <ele>252.4</ele>
        <time>2023-02-12T09:09:09Z</time>
      </trkpt>
      <trkpt lat="44.38596" lon="4.28962">
        <ele>253.6</ele>
        <time>2023-02-12T09:09:39Z</time>
      </trkpt>
      <trkpt lat="44.386" lon="4.28961">
        <ele>253.7</ele>
        <time>2023-02-12T09:10:09Z</time>
      </trkpt>
      <trkpt lat="44.386" lon="4.28959">
        <ele>253.7</ele>
        <time>2023-02-12T09:10:40Z</time>
      </trkpt>
      <trkpt lat="44.38598" lon="4.28961">
        <ele>253.5</ele>
        <time>2023-02-12T09:11:10Z</time>
      </trkpt>
      <trkpt lat="44.38594" lon="4.28963">
        <ele>253.3</ele>
        <time>2023-02-12T09:11:41Z</time>
      </trkpt>
      <trkpt lat="44.38594" lon="4.28963">
        <ele>253.4</ele>
        <time>2023-02-12T09:12:12Z</time>
      </trkpt>
      <trkpt lat="44.38611" lon="4.28962">
        <ele>256.2</ele>
        <time>2023-02-12T09:12:43Z</time>
      </trkpt>
      <trkpt lat="44.38623" lon="4.28954">
        <ele>258.7</ele>
        <time>2023-02-12T09:13:13Z</time>
      </trkpt>
      <trkpt lat="44.38615" lon="4.28954">
        <ele>257</ele>
        <time>2023-02-12T09:13:43Z</time>
      </trkpt>
      <trkpt lat="44.38627" lon="4.28951">
        <ele>259.3</ele>
        <time>2023-02-12T09:14:14Z</time>
      </trkpt>
      <trkpt lat="44.38639" lon="4.28956">
        <ele>260.9</ele>
        <time>2023-02-12T09:14:44Z</time>
      </trkpt>
      <trkpt lat="44.3866" lon="4.2897">
        <ele>266.4</ele>
        <time>2023-02-12T09:15:15Z</time>
      </trkpt>
      <trkpt lat="44.38668" lon="4.28971">
        <ele>263.7</ele>
        <time>2023-02-12T09:15:45Z</time>
      </trkpt>
      <trkpt lat="44.38668" lon="4.28968">
        <ele>264.1</ele>
        <time>2023-02-12T09:16:16Z</time>
      </trkpt>
      <trkpt lat="44.3867" lon="4.28947">
        <ele>262.7</ele>
        <time>2023-02-12T09:16:46Z</time>
      </trkpt>
      <trkpt lat="44.38669" lon="4.2894">
        <ele>261.7</ele>
        <time>2023-02-12T09:17:17Z</time>
      </trkpt>
      <trkpt lat="44.38666" lon="4.28974">
        <ele>264.1</ele>
        <time>2023-02-12T09:17:47Z</time>
      </trkpt>
      <trkpt lat="44.38649" lon="4.28978">
        <ele>265.9</ele>
        <time>2023-02-12T09:18:17Z</time>
      </trkpt>
      <trkpt lat="44.38649" lon="4.28978">
        <ele>265.9</ele>
        <time>2023-02-12T09:18:23Z</time>
      </trkpt>
      <trkpt lat="44.38649" lon="4.28978">
        <ele>265.8</ele>
        <time>2023-02-12T09:18:29Z</time>
      </trkpt>
      <trkpt lat="44.38649" lon="4.28978">
        <ele>265.8</ele>
        <time>2023-02-12T09:18:34Z</time>
      </trkpt>
      <trkpt lat="44.38647" lon="4.28976">
        <ele>265.9</ele>
        <time>2023-02-12T09:18:40Z</time>
      </trkpt>
      <trkpt lat="44.38644" lon="4.28975">
        <ele>265.7</ele>
        <time>2023-02-12T09:18:46Z</time>
      </trkpt>
      <trkpt lat="44.38644" lon="4.28976">
        <ele>265.9</ele>
        <time>2023-02-12T09:18:51Z</time>
      </trkpt>
      <trkpt lat="44.38644" lon="4.28977">
        <ele>265.7</ele>
        <time>2023-02-12T09:18:56Z</time>
      </trkpt>
      <trkpt lat="44.38645" lon="4.28977">
        <ele>265.8</ele>
        <time>2023-02-12T09:19:01Z</time>
      </trkpt>
      <trkpt lat="44.38644" lon="4.28975">
        <ele>265.6</ele>
        <time>2023-02-12T09:19:07Z</time>
      </trkpt>
      <trkpt lat="44.38642" lon="4.28975">
        <ele>265.2</ele>
        <time>2023-02-12T09:19:12Z</time>
      </trkpt>
      <trkpt lat="44.38637" lon="4.28971">
        <ele>264.3</ele>
        <time>2023-02-12T09:19:17Z</time>
      </trkpt>
      <trkpt lat="44.38631" lon="4.28971">
        <ele>263.9</ele>
        <time>2023-02-12T09:19:23Z</time>
      </trkpt>
      <trkpt lat="44.38626" lon="4.28973">
        <ele>262.9</ele>
        <time>2023-02-12T09:19:28Z</time>
      </trkpt>
      <trkpt lat="44.38626" lon="4.28974">
        <ele>263</ele>
        <time>2023-02-12T09:19:33Z</time>
      </trkpt>
      <trkpt lat="44.38622" lon="4.28978">
        <ele>262</ele>
        <time>2023-02-12T09:19:38Z</time>
      </trkpt>
      <trkpt lat="44.38618" lon="4.28979">
        <ele>261.3</ele>
        <time>2023-02-12T09:19:44Z</time>
      </trkpt>
      <trkpt lat="44.38614" lon="4.28979">
        <ele>260.4</ele>
        <time>2023-02-12T09:19:49Z</time>
      </trkpt>
      <trkpt lat="44.38609" lon="4.28981">
        <ele>259.5</ele>
        <time>2023-02-12T09:19:54Z</time>
      </trkpt>
      <trkpt lat="44.38604" lon="4.2898">
        <ele>258.9</ele>
        <time>2023-02-12T09:19:59Z</time>
      </trkpt>
      <trkpt lat="44.38601" lon="4.28984">
        <ele>259.2</ele>
        <time>2023-02-12T09:20:04Z</time>
      </trkpt>
      <trkpt lat="44.38596" lon="4.28987">
        <ele>259.3</ele>
        <time>2023-02-12T09:20:10Z</time>
      </trkpt>
      <trkpt lat="44.38591" lon="4.28991">
        <ele>259.9</ele>
        <time>2023-02-12T09:20:15Z</time>
      </trkpt>
      <trkpt lat="44.38586" lon="4.28994">
        <ele>259.8</ele>
        <time>2023-02-12T09:20:21Z</time>
      </trkpt>
      <trkpt lat="44.38581" lon="4.28998">
        <ele>259.8</ele>
        <time>2023-02-12T09:20:26Z</time>
      </trkpt>
      <trkpt lat="44.38577" lon="4.29">
        <ele>260.4</ele>
        <time>2023-02-12T09:20:31Z</time>
      </trkpt>
      <trkpt lat="44.38573" lon="4.29002">
        <ele>261.1</ele>
        <time>2023-02-12T09:20:37Z</time>
      </trkpt>
      <trkpt lat="44.38566" lon="4.29003">
        <ele>261.9</ele>
        <time>2023-02-12T09:20:42Z</time>
      </trkpt>
      <trkpt lat="44.38562" lon="4.29006">
        <ele>262.4</ele>
        <time>2023-02-12T09:20:47Z</time>
      </trkpt>
      <trkpt lat="44.38558" lon="4.29012">
        <ele>263.2</ele>
        <time>2023-02-12T09:20:53Z</time>
      </trkpt>
      <trkpt lat="44.38554" lon="4.29018">
        <ele>264.4</ele>
        <time>2023-02-12T09:20:58Z</time>
      </trkpt>
      <trkpt lat="44.38551" lon="4.2902">
        <ele>265.6</ele>
        <time>2023-02-12T09:21:03Z</time>
      </trkpt>
      <trkpt lat="44.38547" lon="4.29022">
        <ele>265.8</ele>
        <time>2023-02-12T09:21:09Z</time>
      </trkpt>
      <trkpt lat="44.38542" lon="4.29022">
        <ele>266.7</ele>
        <time>2023-02-12T09:21:14Z</time>
      </trkpt>
      <trkpt lat="44.38537" lon="4.29021">
        <ele>266.9</ele>
        <time>2023-02-12T09:21:19Z</time>
      </trkpt>
      <trkpt lat="44.38531" lon="4.29023">
        <ele>267.4</ele>
        <time>2023-02-12T09:21:26Z</time>
      </trkpt>
      <trkpt lat="44.38526" lon="4.29028">
        <ele>267.9</ele>
        <time>2023-02-12T09:21:31Z</time>
      </trkpt>
      <trkpt lat="44.38522" lon="4.29031">
        <ele>268.6</ele>
        <time>2023-02-12T09:21:36Z</time>
      </trkpt>
      <trkpt lat="44.38521" lon="4.29037">
        <ele>269.2</ele>
        <time>2023-02-12T09:21:41Z</time>
      </trkpt>
      <trkpt lat="44.38524" lon="4.29043">
        <ele>270.1</ele>
        <time>2023-02-12T09:21:46Z</time>
      </trkpt>
      <trkpt lat="44.38527" lon="4.29047">
        <ele>271</ele>
        <time>2023-02-12T09:21:51Z</time>
      </trkpt>
      <trkpt lat="44.38531" lon="4.29053">
        <ele>272</ele>
        <time>2023-02-12T09:21:57Z</time>
      </trkpt>
      <trkpt lat="44.38534" lon="4.29059">
        <ele>272.7</ele>
        <time>2023-02-12T09:22:02Z</time>
      </trkpt>
      <trkpt lat="44.38536" lon="4.29065">
        <ele>273.7</ele>
        <time>2023-02-12T09:22:07Z</time>
      </trkpt>
      <trkpt lat="44.38537" lon="4.29072">
        <ele>274.4</ele>
        <time>2023-02-12T09:22:13Z</time>
      </trkpt>
      <trkpt lat="44.38539" lon="4.29079">
        <ele>274.7</ele>
        <time>2023-02-12T09:22:18Z</time>
      </trkpt>
      <trkpt lat="44.38541" lon="4.29085">
        <ele>275.2</ele>
        <time>2023-02-12T09:22:24Z</time>
      </trkpt>
      <trkpt lat="44.38542" lon="4.2909">
        <ele>275.9</ele>
        <time>2023-02-12T09:22:29Z</time>
      </trkpt>
      <trkpt lat="44.38542" lon="4.29099">
        <ele>275.9</ele>
        <time>2023-02-12T09:22:34Z</time>
      </trkpt>
      <trkpt lat="44.38541" lon="4.29105">
        <ele>276.6</ele>
        <time>2023-02-12T09:22:39Z</time>
      </trkpt>
      <trkpt lat="44.38541" lon="4.29103">
        <ele>276.5</ele>
        <time>2023-02-12T09:22:45Z</time>
      </trkpt>
      <trkpt lat="44.38541" lon="4.29097">
        <ele>276.2</ele>
        <time>2023-02-12T09:22:50Z</time>
      </trkpt>
      <trkpt lat="44.38542" lon="4.2909">
        <ele>275.9</ele>
        <time>2023-02-12T09:22:56Z</time>
      </trkpt>
      <trkpt lat="44.38541" lon="4.2909">
        <ele>275.6</ele>
        <time>2023-02-12T09:23:02Z</time>
      </trkpt>
      <trkpt lat="44.38542" lon="4.2909">
        <ele>276</ele>
        <time>2023-02-12T09:23:08Z</time>
      </trkpt>
      <trkpt lat="44.38543" lon="4.29092">
        <ele>276.2</ele>
        <time>2023-02-12T09:23:13Z</time>
      </trkpt>
      <trkpt lat="44.38543" lon="4.29093">
        <ele>276.1</ele>
        <time>2023-02-12T09:23:19Z</time>
      </trkpt>
      <trkpt lat="44.38543" lon="4.29092">
        <ele>276.1</ele>
        <time>2023-02-12T09:23:24Z</time>
      </trkpt>
      <trkpt lat="44.3854" lon="4.29099">
        <ele>276.3</ele>
        <time>2023-02-12T09:23:30Z</time>
      </trkpt>
      <trkpt lat="44.38543" lon="4.29106">
        <ele>276.1</ele>
        <time>2023-02-12T09:23:35Z</time>
      </trkpt>
      <trkpt lat="44.38546" lon="4.29105">
        <ele>275.7</ele>
        <time>2023-02-12T09:23:40Z</time>
      </trkpt>
      <trkpt lat="44.38547" lon="4.29104">
        <ele>275.6</ele>
        <time>2023-02-12T09:23:46Z</time>
      </trkpt>
      <trkpt lat="44.38546" lon="4.29104">
        <ele>275.4</ele>
        <time>2023-02-12T09:23:52Z</time>
      </trkpt>
      <trkpt lat="44.38547" lon="4.29104">
        <ele>275.4</ele>
        <time>2023-02-12T09:23:57Z</time>
      </trkpt>
      <trkpt lat="44.38547" lon="4.29105">
        <ele>275.6</ele>
        <time>2023-02-12T09:24:03Z</time>
      </trkpt>
      <trkpt lat="44.38547" lon="4.29105">
        <ele>275.6</ele>
        <time>2023-02-12T09:24:08Z</time>
      </trkpt>
      <trkpt lat="44.38547" lon="4.29105">
        <ele>275.5</ele>
        <time>2023-02-12T09:24:13Z</time>
      </trkpt>
      <trkpt lat="44.38547" lon="4.29105">
        <ele>275.2</ele>
        <time>2023-02-12T09:24:19Z</time>
      </trkpt>
      <trkpt lat="44.38547" lon="4.29106">
        <ele>275.3</ele>
        <time>2023-02-12T09:24:25Z</time>
      </trkpt>
      <trkpt lat="44.38547" lon="4.29105">
        <ele>275.3</ele>
        <time>2023-02-12T09:24:30Z</time>
      </trkpt>
      <trkpt lat="44.38547" lon="4.29105">
        <ele>275.2</ele>
        <time>2023-02-12T09:24:36Z</time>
      </trkpt>
      <trkpt lat="44.38547" lon="4.29105">
        <ele>275.7</ele>
        <time>2023-02-12T09:24:41Z</time>
      </trkpt>
      <trkpt lat="44.38547" lon="4.29105">
        <ele>275.4</ele>
        <time>2023-02-12T09:24:46Z</time>
      </trkpt>
      <trkpt lat="44.38546" lon="4.29105">
        <ele>275.2</ele>
        <time>2023-02-12T09:24:52Z</time>
      </trkpt>
      <trkpt lat="44.38546" lon="4.29105">
        <ele>275.4</ele>
        <time>2023-02-12T09:24:57Z</time>
      </trkpt>
      <trkpt lat="44.38546" lon="4.29105">
        <ele>275.3</ele>
        <time>2023-02-12T09:25:02Z</time>
      </trkpt>
      <trkpt lat="44.38546" lon="4.29106">
        <ele>275.5</ele>
        <time>2023-02-12T09:25:07Z</time>
      </trkpt>
      <trkpt lat="44.38546" lon="4.29106">
        <ele>275.7</ele>
        <time>2023-02-12T09:25:13Z</time>
      </trkpt>
      <trkpt lat="44.38546" lon="4.29106">
        <ele>275.5</ele>
        <time>2023-02-12T09:25:18Z</time>
      </trkpt>
      <trkpt lat="44.38546" lon="4.29106">
        <ele>275.4</ele>
        <time>2023-02-12T09:25:24Z</time>
      </trkpt>
      <trkpt lat="44.38546" lon="4.29106">
        <ele>275.3</ele>
        <time>2023-02-12T09:25:30Z</time>
      </trkpt>
      <trkpt lat="44.38546" lon="4.29106">
        <ele>275.4</ele>
        <time>2023-02-12T09:25:35Z</time>
      </trkpt>
      <trkpt lat="44.38546" lon="4.29106">
        <ele>275.4</ele>
        <time>2023-02-12T09:25:41Z</time>
      </trkpt>
      <trkpt lat="44.38546" lon="4.29106">
        <ele>275.2</ele>
        <time>2023-02-12T09:25:47Z</time>
      </trkpt>
      <trkpt lat="44.38546" lon="4.29107">
        <ele>275.7</ele>
        <time>2023-02-12T09:25:53Z</time>
      </trkpt>
      <trkpt lat="44.38546" lon="4.29107">
        <ele>275.3</ele>
        <time>2023-02-12T09:25:58Z</time>
      </trkpt>
      <trkpt lat="44.38547" lon="4.29107">
        <ele>275.6</ele>
        <time>2023-02-12T09:26:04Z</time>
      </trkpt>
      <trkpt lat="44.38547" lon="4.29107">
        <ele>275.4</ele>
        <time>2023-02-12T09:26:10Z</time>
      </trkpt>
      <trkpt lat="44.38547" lon="4.29106">
        <ele>275.4</ele>
        <time>2023-02-12T09:26:16Z</time>
      </trkpt>
      <trkpt lat="44.38547" lon="4.29106">
        <ele>275.4</ele>
        <time>2023-02-12T09:26:22Z</time>
      </trkpt>
      <trkpt lat="44.38547" lon="4.29106">
        <ele>275.3</ele>
        <time>2023-02-12T09:26:27Z</time>
      </trkpt>
      <trkpt lat="44.38547" lon="4.29106">
        <ele>275.5</ele>
        <time>2023-02-12T09:26:33Z</time>
      </trkpt>
      <trkpt lat="44.38547" lon="4.29106">
        <ele>275.3</ele>
        <time>2023-02-12T09:26:38Z</time>
      </trkpt>
      <trkpt lat="44.38547" lon="4.29106">
        <ele>275.3</ele>
        <time>2023-02-12T09:26:43Z</time>
      </trkpt>
      <trkpt lat="44.38547" lon="4.29105">
        <ele>275.6</ele>
        <time>2023-02-12T09:26:48Z</time>
      </trkpt>
      <trkpt lat="44.38547" lon="4.29106">
        <ele>276</ele>
        <time>2023-02-12T09:26:54Z</time>
      </trkpt>
      <trkpt lat="44.38544" lon="4.29107">
        <ele>276.8</ele>
        <time>2023-02-12T09:27:00Z</time>
      </trkpt>
      <trkpt lat="44.38536" lon="4.29112">
        <ele>277.2</ele>
        <time>2023-02-12T09:27:06Z</time>
      </trkpt>
      <trkpt lat="44.3853" lon="4.2912">
        <ele>277.8</ele>
        <time>2023-02-12T09:27:12Z</time>
      </trkpt>
      <trkpt lat="44.38526" lon="4.29129">
        <ele>278.4</ele>
        <time>2023-02-12T09:27:17Z</time>
      </trkpt>
      <trkpt lat="44.38525" lon="4.2914">
        <ele>279.3</ele>
        <time>2023-02-12T09:27:22Z</time>
      </trkpt>
      <trkpt lat="44.38524" lon="4.29147">
        <ele>279.9</ele>
        <time>2023-02-12T09:27:28Z</time>
      </trkpt>
      <trkpt lat="44.38524" lon="4.29155">
        <ele>280.6</ele>
        <time>2023-02-12T09:27:33Z</time>
      </trkpt>
      <trkpt lat="44.38524" lon="4.29162">
        <ele>281.6</ele>
        <time>2023-02-12T09:27:39Z</time>
      </trkpt>
      <trkpt lat="44.38525" lon="4.2917">
        <ele>282.2</ele>
        <time>2023-02-12T09:27:44Z</time>
      </trkpt>
      <trkpt lat="44.38526" lon="4.29178">
        <ele>283.7</ele>
        <time>2023-02-12T09:27:50Z</time>
      </trkpt>
      <trkpt lat="44.38526" lon="4.29185">
        <ele>284.6</ele>
        <time>2023-02-12T09:27:55Z</time>
      </trkpt>
      <trkpt lat="44.38525" lon="4.29192">
        <ele>285.2</ele>
        <time>2023-02-12T09:28:00Z</time>
      </trkpt>
      <trkpt lat="44.38523" lon="4.292">
        <ele>286.1</ele>
        <time>2023-02-12T09:28:05Z</time>
      </trkpt>
      <trkpt lat="44.38521" lon="4.29206">
        <ele>286.8</ele>
        <time>2023-02-12T09:28:11Z</time>
      </trkpt>
      <trkpt lat="44.3852" lon="4.29214">
        <ele>287.8</ele>
        <time>2023-02-12T09:28:16Z</time>
      </trkpt>
      <trkpt lat="44.3852" lon="4.29221">
        <ele>288.6</ele>
        <time>2023-02-12T09:28:21Z</time>
      </trkpt>
      <trkpt lat="44.38519" lon="4.29227">
        <ele>289.8</ele>
        <time>2023-02-12T09:28:26Z</time>
      </trkpt>
      <trkpt lat="44.38518" lon="4.29232">
        <ele>290</ele>
        <time>2023-02-12T09:28:31Z</time>
      </trkpt>
      <trkpt lat="44.38518" lon="4.29231">
        <ele>290.5</ele>
        <time>2023-02-12T09:28:37Z</time>
      </trkpt>
      <trkpt lat="44.38518" lon="4.29231">
        <ele>290.5</ele>
        <time>2023-02-12T09:28:42Z</time>
      </trkpt>
      <trkpt lat="44.38517" lon="4.29234">
        <ele>290.5</ele>
        <time>2023-02-12T09:28:47Z</time>
      </trkpt>
      <trkpt lat="44.38513" lon="4.29236">
        <ele>291.5</ele>
        <time>2023-02-12T09:28:52Z</time>
      </trkpt>
      <trkpt lat="44.38508" lon="4.29236">
        <ele>293.1</ele>
        <time>2023-02-12T09:28:57Z</time>
      </trkpt>
      <trkpt lat="44.38505" lon="4.29236">
        <ele>293.8</ele>
        <time>2023-02-12T09:29:02Z</time>
      </trkpt>
      <trkpt lat="44.38506" lon="4.29236">
        <ele>293.5</ele>
        <time>2023-02-12T09:29:08Z</time>
      </trkpt>
      <trkpt lat="44.38506" lon="4.29237">
        <ele>293.7</ele>
        <time>2023-02-12T09:29:13Z</time>
      </trkpt>
      <trkpt lat="44.38506" lon="4.29237">
        <ele>294.3</ele>
        <time>2023-02-12T09:29:19Z</time>
      </trkpt>
      <trkpt lat="44.38507" lon="4.29236">
        <ele>293.8</ele>
        <time>2023-02-12T09:29:24Z</time>
      </trkpt>
      <trkpt lat="44.38505" lon="4.29235">
        <ele>293.6</ele>
        <time>2023-02-12T09:29:29Z</time>
      </trkpt>
      <trkpt lat="44.38505" lon="4.29236">
        <ele>293.4</ele>
        <time>2023-02-12T09:29:35Z</time>
      </trkpt>
      <trkpt lat="44.38503" lon="4.29236">
        <ele>294</ele>
        <time>2023-02-12T09:29:40Z</time>
      </trkpt>
      <trkpt lat="44.38502" lon="4.29241">
        <ele>294.3</ele>
        <time>2023-02-12T09:29:46Z</time>
      </trkpt>
      <trkpt lat="44.38504" lon="4.29245">
        <ele>294.6</ele>
        <time>2023-02-12T09:29:51Z</time>
      </trkpt>
      <trkpt lat="44.38509" lon="4.29248">
        <ele>293.6</ele>
        <time>2023-02-12T09:29:56Z</time>
      </trkpt>
      <trkpt lat="44.3851" lon="4.29248">
        <ele>293.8</ele>
        <time>2023-02-12T09:30:01Z</time>
      </trkpt>
      <trkpt lat="44.3851" lon="4.29254">
        <ele>293.6</ele>
        <time>2023-02-12T09:30:07Z</time>
      </trkpt>
      <trkpt lat="44.38513" lon="4.29261">
        <ele>293.5</ele>
        <time>2023-02-12T09:30:12Z</time>
      </trkpt>
      <trkpt lat="44.38514" lon="4.29261">
        <ele>293.7</ele>
        <time>2023-02-12T09:30:18Z</time>
      </trkpt>
      <trkpt lat="44.38514" lon="4.29262">
        <ele>293.3</ele>
        <time>2023-02-12T09:30:23Z</time>
      </trkpt>
      <trkpt lat="44.38514" lon="4.2926">
        <ele>292.4</ele>
        <time>2023-02-12T09:30:28Z</time>
      </trkpt>
      <trkpt lat="44.38515" lon="4.29251">
        <ele>291.5</ele>
        <time>2023-02-12T09:30:34Z</time>
      </trkpt>
      <trkpt lat="44.38516" lon="4.29242">
        <ele>290.8</ele>
        <time>2023-02-12T09:30:39Z</time>
      </trkpt>
      <trkpt lat="44.38516" lon="4.29237">
        <ele>291.6</ele>
        <time>2023-02-12T09:30:44Z</time>
      </trkpt>
      <trkpt lat="44.38514" lon="4.29236">
        <ele>293.3</ele>
        <time>2023-02-12T09:30:50Z</time>
      </trkpt>
      <trkpt lat="44.38513" lon="4.29236">
        <ele>292.9</ele>
        <time>2023-02-12T09:30:56Z</time>
      </trkpt>
      <trkpt lat="44.38513" lon="4.29238">
        <ele>292.7</ele>
        <time>2023-02-12T09:31:02Z</time>
      </trkpt>
      <trkpt lat="44.38512" lon="4.29236">
        <ele>292.6</ele>
        <time>2023-02-12T09:31:08Z</time>
      </trkpt>
      <trkpt lat="44.38511" lon="4.29236">
        <ele>292.8</ele>
        <time>2023-02-12T09:31:13Z</time>
      </trkpt>
      <trkpt lat="44.38511" lon="4.29235">
        <ele>293.1</ele>
        <time>2023-02-12T09:31:18Z</time>
      </trkpt>
      <trkpt lat="44.3851" lon="4.29234">
        <ele>293.1</ele>
        <time>2023-02-12T09:31:24Z</time>
      </trkpt>
      <trkpt lat="44.3851" lon="4.29234">
        <ele>292.7</ele>
        <time>2023-02-12T09:31:29Z</time>
      </trkpt>
      <trkpt lat="44.38508" lon="4.29232">
        <ele>292.7</ele>
        <time>2023-02-12T09:31:35Z</time>
      </trkpt>
      <trkpt lat="44.38506" lon="4.29232">
        <ele>293</ele>
        <time>2023-02-12T09:31:40Z</time>
      </trkpt>
      <trkpt lat="44.38504" lon="4.29235">
        <ele>293.2</ele>
        <time>2023-02-12T09:31:45Z</time>
      </trkpt>
      <trkpt lat="44.38507" lon="4.29236">
        <ele>293.4</ele>
        <time>2023-02-12T09:31:52Z</time>
      </trkpt>
      <trkpt lat="44.38507" lon="4.29236">
        <ele>293.3</ele>
        <time>2023-02-12T09:31:57Z</time>
      </trkpt>
      <trkpt lat="44.38508" lon="4.29236">
        <ele>293.1</ele>
        <time>2023-02-12T09:32:02Z</time>
      </trkpt>
      <trkpt lat="44.3851" lon="4.29237">
        <ele>292.6</ele>
        <time>2023-02-12T09:32:08Z</time>
      </trkpt>
      <trkpt lat="44.38511" lon="4.29238">
        <ele>292.3</ele>
        <time>2023-02-12T09:32:13Z</time>
      </trkpt>
      <trkpt lat="44.38512" lon="4.29238">
        <ele>292.2</ele>
        <time>2023-02-12T09:32:18Z</time>
      </trkpt>
      <trkpt lat="44.38514" lon="4.29239">
        <ele>291.4</ele>
        <time>2023-02-12T09:32:24Z</time>
      </trkpt>
      <trkpt lat="44.38516" lon="4.29239">
        <ele>290.8</ele>
        <time>2023-02-12T09:32:29Z</time>
      </trkpt>
      <trkpt lat="44.38518" lon="4.2924">
        <ele>291</ele>
        <time>2023-02-12T09:32:35Z</time>
      </trkpt>
      <trkpt lat="44.38519" lon="4.2924">
        <ele>291.2</ele>
        <time>2023-02-12T09:32:41Z</time>
      </trkpt>
      <trkpt lat="44.38519" lon="4.2924">
        <ele>290.9</ele>
        <time>2023-02-12T09:32:46Z</time>
      </trkpt>
      <trkpt lat="44.38519" lon="4.29239">
        <ele>290.6</ele>
        <time>2023-02-12T09:32:52Z</time>
      </trkpt>
      <trkpt lat="44.38518" lon="4.29238">
        <ele>290.8</ele>
        <time>2023-02-12T09:32:57Z</time>
      </trkpt>
      <trkpt lat="44.38518" lon="4.29239">
        <ele>290.7</ele>
        <time>2023-02-12T09:33:03Z</time>
      </trkpt>
      <trkpt lat="44.38518" lon="4.2924">
        <ele>291.2</ele>
        <time>2023-02-12T09:33:09Z</time>
      </trkpt>
      <trkpt lat="44.38517" lon="4.29242">
        <ele>291.6</ele>
        <time>2023-02-12T09:33:15Z</time>
      </trkpt>
      <trkpt lat="44.38514" lon="4.29252">
        <ele>292.4</ele>
        <time>2023-02-12T09:33:21Z</time>
      </trkpt>
      <trkpt lat="44.38513" lon="4.29258">
        <ele>293.1</ele>
        <time>2023-02-12T09:33:26Z</time>
      </trkpt>
      <trkpt lat="44.38513" lon="4.29258">
        <ele>293</ele>
        <time>2023-02-12T09:33:32Z</time>
      </trkpt>
      <trkpt lat="44.38513" lon="4.29258">
        <ele>293.1</ele>
        <time>2023-02-12T09:33:38Z</time>
      </trkpt>
      <trkpt lat="44.38513" lon="4.29255">
        <ele>292.7</ele>
        <time>2023-02-12T09:33:43Z</time>
      </trkpt>
      <trkpt lat="44.38515" lon="4.29246">
        <ele>291.1</ele>
        <time>2023-02-12T09:33:49Z</time>
      </trkpt>
      <trkpt lat="44.38517" lon="4.29238">
        <ele>290.4</ele>
        <time>2023-02-12T09:33:54Z</time>
      </trkpt>
      <trkpt lat="44.3852" lon="4.2923">
        <ele>289.8</ele>
        <time>2023-02-12T09:33:59Z</time>
      </trkpt>
      <trkpt lat="44.3852" lon="4.2922">
        <ele>288.9</ele>
        <time>2023-02-12T09:34:05Z</time>
      </trkpt>
      <trkpt lat="44.38521" lon="4.29211">
        <ele>288</ele>
        <time>2023-02-12T09:34:10Z</time>
      </trkpt>
      <trkpt lat="44.38522" lon="4.29205">
        <ele>286.8</ele>
        <time>2023-02-12T09:34:16Z</time>
      </trkpt>
      <trkpt lat="44.38523" lon="4.29197">
        <ele>286.1</ele>
        <time>2023-02-12T09:34:21Z</time>
      </trkpt>
      <trkpt lat="44.38525" lon="4.29189">
        <ele>284.8</ele>
        <time>2023-02-12T09:34:27Z</time>
      </trkpt>
      <trkpt lat="44.38526" lon="4.29182">
        <ele>284.5</ele>
        <time>2023-02-12T09:34:32Z</time>
      </trkpt>
      <trkpt lat="44.38526" lon="4.29174">
        <ele>283.6</ele>
        <time>2023-02-12T09:34:37Z</time>
      </trkpt>
      <trkpt lat="44.38526" lon="4.29167">
        <ele>282.5</ele>
        <time>2023-02-12T09:34:42Z</time>
      </trkpt>
      <trkpt lat="44.38526" lon="4.29158">
        <ele>281</ele>
        <time>2023-02-12T09:34:48Z</time>
      </trkpt>
      <trkpt lat="44.38526" lon="4.29151">
        <ele>280.3</ele>
        <time>2023-02-12T09:34:53Z</time>
      </trkpt>
      <trkpt lat="44.38526" lon="4.29142">
        <ele>279.3</ele>
        <time>2023-02-12T09:34:59Z</time>
      </trkpt>
      <trkpt lat="44.38527" lon="4.29136">
        <ele>279.1</ele>
        <time>2023-02-12T09:35:04Z</time>
      </trkpt>
      <trkpt lat="44.38528" lon="4.29127">
        <ele>278.5</ele>
        <time>2023-02-12T09:35:10Z</time>
      </trkpt>
      <trkpt lat="44.38531" lon="4.29119">
        <ele>277.7</ele>
        <time>2023-02-12T09:35:15Z</time>
      </trkpt>
      <trkpt lat="44.38535" lon="4.29113">
        <ele>276.8</ele>
        <time>2023-02-12T09:35:21Z</time>
      </trkpt>
      <trkpt lat="44.3854" lon="4.29108">
        <ele>276.3</ele>
        <time>2023-02-12T09:35:26Z</time>
      </trkpt>
      <trkpt lat="44.38545" lon="4.29106">
        <ele>276.2</ele>
        <time>2023-02-12T09:35:32Z</time>
      </trkpt>
      <trkpt lat="44.38549" lon="4.29104">
        <ele>275.1</ele>
        <time>2023-02-12T09:35:37Z</time>
      </trkpt>
      <trkpt lat="44.38555" lon="4.29101">
        <ele>274.1</ele>
        <time>2023-02-12T09:35:42Z</time>
      </trkpt>
      <trkpt lat="44.3856" lon="4.29098">
        <ele>273.1</ele>
        <time>2023-02-12T09:35:48Z</time>
      </trkpt>
      <trkpt lat="44.38565" lon="4.29096">
        <ele>271.6</ele>
        <time>2023-02-12T09:35:53Z</time>
      </trkpt>
      <trkpt lat="44.38569" lon="4.29095">
        <ele>271</ele>
        <time>2023-02-12T09:35:59Z</time>
      </trkpt>
      <trkpt lat="44.38575" lon="4.29094">
        <ele>270</ele>
        <time>2023-02-12T09:36:04Z</time>
      </trkpt>
      <trkpt lat="44.3858" lon="4.29092">
        <ele>269.3</ele>
        <time>2023-02-12T09:36:10Z</time>
      </trkpt>
      <trkpt lat="44.38585" lon="4.2909">
        <ele>268.5</ele>
        <time>2023-02-12T09:36:15Z</time>
      </trkpt>
      <trkpt lat="44.3859" lon="4.2909">
        <ele>268</ele>
        <time>2023-02-12T09:36:20Z</time>
      </trkpt>
      <trkpt lat="44.38595" lon="4.29089">
        <ele>267.1</ele>
        <time>2023-02-12T09:36:26Z</time>
      </trkpt>
      <trkpt lat="44.386" lon="4.29083">
        <ele>266.5</ele>
        <time>2023-02-12T09:36:31Z</time>
      </trkpt>
      <trkpt lat="44.38606" lon="4.29078">
        <ele>265.7</ele>
        <time>2023-02-12T09:36:37Z</time>
      </trkpt>
      <trkpt lat="44.38611" lon="4.29075">
        <ele>265</ele>
        <time>2023-02-12T09:36:42Z</time>
      </trkpt>
      <trkpt lat="44.38615" lon="4.2907">
        <ele>264.4</ele>
        <time>2023-02-12T09:36:48Z</time>
      </trkpt>
      <trkpt lat="44.38621" lon="4.29066">
        <ele>263.6</ele>
        <time>2023-02-12T09:36:53Z</time>
      </trkpt>
      <trkpt lat="44.38627" lon="4.29062">
        <ele>262.7</ele>
        <time>2023-02-12T09:36:59Z</time>
      </trkpt>
      <trkpt lat="44.38633" lon="4.29058">
        <ele>262</ele>
        <time>2023-02-12T09:37:04Z</time>
      </trkpt>
      <trkpt lat="44.38639" lon="4.29054">
        <ele>260.9</ele>
        <time>2023-02-12T09:37:11Z</time>
      </trkpt>
      <trkpt lat="44.38643" lon="4.29051">
        <ele>260.3</ele>
        <time>2023-02-12T09:37:16Z</time>
      </trkpt>
      <trkpt lat="44.38646" lon="4.29045">
        <ele>259.5</ele>
        <time>2023-02-12T09:37:21Z</time>
      </trkpt>
      <trkpt lat="44.38649" lon="4.2904">
        <ele>258.8</ele>
        <time>2023-02-12T09:37:27Z</time>
      </trkpt>
      <trkpt lat="44.38654" lon="4.29036">
        <ele>257.7</ele>
        <time>2023-02-12T09:37:32Z</time>
      </trkpt>
      <trkpt lat="44.38658" lon="4.29034">
        <ele>257.1</ele>
        <time>2023-02-12T09:37:37Z</time>
      </trkpt>
      <trkpt lat="44.38664" lon="4.29029">
        <ele>255.9</ele>
        <time>2023-02-12T09:37:44Z</time>
      </trkpt>
      <trkpt lat="44.38669" lon="4.29024">
        <ele>255.1</ele>
        <time>2023-02-12T09:37:49Z</time>
      </trkpt>
      <trkpt lat="44.38675" lon="4.2902">
        <ele>254.3</ele>
        <time>2023-02-12T09:37:54Z</time>
      </trkpt>
      <trkpt lat="44.38676" lon="4.29017">
        <ele>253.2</ele>
        <time>2023-02-12T09:38:00Z</time>
      </trkpt>
      <trkpt lat="44.38678" lon="4.29013">
        <ele>252.2</ele>
        <time>2023-02-12T09:38:05Z</time>
      </trkpt>
      <trkpt lat="44.38682" lon="4.29008">
        <ele>251.4</ele>
        <time>2023-02-12T09:38:10Z</time>
      </trkpt>
      <trkpt lat="44.38684" lon="4.29004">
        <ele>250.4</ele>
        <time>2023-02-12T09:38:15Z</time>
      </trkpt>
      <trkpt lat="44.38688" lon="4.28999">
        <ele>249.7</ele>
        <time>2023-02-12T09:38:21Z</time>
      </trkpt>
      <trkpt lat="44.38691" lon="4.28994">
        <ele>249</ele>
        <time>2023-02-12T09:38:26Z</time>
      </trkpt>
      <trkpt lat="44.38693" lon="4.28988">
        <ele>247.9</ele>
        <time>2023-02-12T09:38:32Z</time>
      </trkpt>
      <trkpt lat="44.38695" lon="4.28981">
        <ele>247.1</ele>
        <time>2023-02-12T09:38:37Z</time>
      </trkpt>
      <trkpt lat="44.38696" lon="4.28974">
        <ele>246.3</ele>
        <time>2023-02-12T09:38:42Z</time>
      </trkpt>
      <trkpt lat="44.38698" lon="4.28967">
        <ele>245.3</ele>
        <time>2023-02-12T09:38:47Z</time>
      </trkpt>
      <trkpt lat="44.38702" lon="4.28962">
        <ele>244.4</ele>
        <time>2023-02-12T09:38:52Z</time>
      </trkpt>
      <trkpt lat="44.38705" lon="4.28957">
        <ele>243.1</ele>
        <time>2023-02-12T09:38:57Z</time>
      </trkpt>
      <trkpt lat="44.38707" lon="4.28952">
        <ele>242.1</ele>
        <time>2023-02-12T09:39:03Z</time>
      </trkpt>
      <trkpt lat="44.38709" lon="4.28946">
        <ele>241.3</ele>
        <time>2023-02-12T09:39:08Z</time>
      </trkpt>
      <trkpt lat="44.3871" lon="4.28941">
        <ele>240.1</ele>
        <time>2023-02-12T09:39:13Z</time>
      </trkpt>
      <trkpt lat="44.38712" lon="4.28933">
        <ele>239.2</ele>
        <time>2023-02-12T09:39:19Z</time>
      </trkpt>
      <trkpt lat="44.38713" lon="4.28926">
        <ele>238.5</ele>
        <time>2023-02-12T09:39:24Z</time>
      </trkpt>
      <trkpt lat="44.38713" lon="4.28926">
        <ele>238.5</ele>
        <time>2023-02-12T09:39:29Z</time>
      </trkpt>
      <trkpt lat="44.38713" lon="4.28928">
        <ele>238.3</ele>
        <time>2023-02-12T09:39:35Z</time>
      </trkpt>
      <trkpt lat="44.38713" lon="4.28929">
        <ele>238.3</ele>
        <time>2023-02-12T09:39:40Z</time>
      </trkpt>
      <trkpt lat="44.38713" lon="4.28924">
        <ele>237.2</ele>
        <time>2023-02-12T09:39:45Z</time>
      </trkpt>
      <trkpt lat="44.38714" lon="4.28915">
        <ele>236.4</ele>
        <time>2023-02-12T09:39:51Z</time>
      </trkpt>
      <trkpt lat="44.38717" lon="4.28915">
        <ele>236.4</ele>
        <time>2023-02-12T09:39:57Z</time>
      </trkpt>
      <trkpt lat="44.38717" lon="4.28916">
        <ele>236.6</ele>
        <time>2023-02-12T09:40:02Z</time>
      </trkpt>
      <trkpt lat="44.38716" lon="4.28916">
        <ele>236.5</ele>
        <time>2023-02-12T09:40:09Z</time>
      </trkpt>
      <trkpt lat="44.38716" lon="4.28915">
        <ele>236.7</ele>
        <time>2023-02-12T09:40:15Z</time>
      </trkpt>
      <trkpt lat="44.38716" lon="4.28915">
        <ele>236.5</ele>
        <time>2023-02-12T09:40:21Z</time>
      </trkpt>
      <trkpt lat="44.38716" lon="4.28915">
        <ele>236.5</ele>
        <time>2023-02-12T09:40:26Z</time>
      </trkpt>
      <trkpt lat="44.38715" lon="4.28916">
        <ele>236.7</ele>
        <time>2023-02-12T09:40:32Z</time>
      </trkpt>
      <trkpt lat="44.38715" lon="4.28911">
        <ele>235.5</ele>
        <time>2023-02-12T09:40:37Z</time>
      </trkpt>
      <trkpt lat="44.38716" lon="4.28911">
        <ele>235.6</ele>
        <time>2023-02-12T09:40:43Z</time>
      </trkpt>
      <trkpt lat="44.38716" lon="4.2891">
        <ele>235.6</ele>
        <time>2023-02-12T09:40:48Z</time>
      </trkpt>
      <trkpt lat="44.38715" lon="4.28909">
        <ele>235.4</ele>
        <time>2023-02-12T09:40:53Z</time>
      </trkpt>
      <trkpt lat="44.38715" lon="4.28909">
        <ele>236.1</ele>
        <time>2023-02-12T09:41:00Z</time>
      </trkpt>
      <trkpt lat="44.38715" lon="4.28909">
        <ele>235.4</ele>
        <time>2023-02-12T09:41:06Z</time>
      </trkpt>
      <trkpt lat="44.38713" lon="4.28904">
        <ele>235</ele>
        <time>2023-02-12T09:41:11Z</time>
      </trkpt>
      <trkpt lat="44.3871" lon="4.28899">
        <ele>234.1</ele>
        <time>2023-02-12T09:41:16Z</time>
      </trkpt>
      <trkpt lat="44.38707" lon="4.28894">
        <ele>232.9</ele>
        <time>2023-02-12T09:41:21Z</time>
      </trkpt>
      <trkpt lat="44.38704" lon="4.2889">
        <ele>232.2</ele>
        <time>2023-02-12T09:41:26Z</time>
      </trkpt>
      <trkpt lat="44.38701" lon="4.28884">
        <ele>231.5</ele>
        <time>2023-02-12T09:41:31Z</time>
      </trkpt>
      <trkpt lat="44.38695" lon="4.28878">
        <ele>229.7</ele>
        <time>2023-02-12T09:41:37Z</time>
      </trkpt>
      <trkpt lat="44.3869" lon="4.28874">
        <ele>229</ele>
        <time>2023-02-12T09:41:42Z</time>
      </trkpt>
      <trkpt lat="44.38686" lon="4.2887">
        <ele>228.2</ele>
        <time>2023-02-12T09:41:48Z</time>
      </trkpt>
      <trkpt lat="44.38681" lon="4.28868">
        <ele>227.2</ele>
        <time>2023-02-12T09:41:53Z</time>
      </trkpt>
      <trkpt lat="44.38676" lon="4.28866">
        <ele>226.3</ele>
        <time>2023-02-12T09:41:59Z</time>
      </trkpt>
      <trkpt lat="44.38671" lon="4.28864">
        <ele>225.7</ele>
        <time>2023-02-12T09:42:05Z</time>
      </trkpt>
      <trkpt lat="44.38666" lon="4.28863">
        <ele>225.2</ele>
        <time>2023-02-12T09:42:10Z</time>
      </trkpt>
      <trkpt lat="44.38662" lon="4.28864">
        <ele>224.2</ele>
        <time>2023-02-12T09:42:16Z</time>
      </trkpt>
      <trkpt lat="44.38655" lon="4.28865">
        <ele>222.9</ele>
        <time>2023-02-12T09:42:21Z</time>
      </trkpt>
      <trkpt lat="44.38651" lon="4.28862">
        <ele>222.7</ele>
        <time>2023-02-12T09:42:27Z</time>
      </trkpt>
      <trkpt lat="44.38651" lon="4.2886">
        <ele>221.5</ele>
        <time>2023-02-12T09:42:32Z</time>
      </trkpt>
      <trkpt lat="44.3865" lon="4.28858">
        <ele>221.3</ele>
        <time>2023-02-12T09:42:37Z</time>
      </trkpt>
      <trkpt lat="44.38643" lon="4.28857">
        <ele>221.5</ele>
        <time>2023-02-12T09:42:43Z</time>
      </trkpt>
      <trkpt lat="44.38643" lon="4.28857">
        <ele>221.2</ele>
        <time>2023-02-12T09:42:49Z</time>
      </trkpt>
      <trkpt lat="44.38642" lon="4.28856">
        <ele>221.6</ele>
        <time>2023-02-12T09:42:54Z</time>
      </trkpt>
      <trkpt lat="44.38636" lon="4.28855">
        <ele>220.9</ele>
        <time>2023-02-12T09:42:59Z</time>
      </trkpt>
      <trkpt lat="44.38631" lon="4.28858">
        <ele>220.3</ele>
        <time>2023-02-12T09:43:04Z</time>
      </trkpt>
      <trkpt lat="44.38627" lon="4.28859">
        <ele>220.7</ele>
        <time>2023-02-12T09:43:10Z</time>
      </trkpt>
      <trkpt lat="44.3862" lon="4.28864">
        <ele>220.7</ele>
        <time>2023-02-12T09:43:15Z</time>
      </trkpt>
      <trkpt lat="44.38615" lon="4.28868">
        <ele>220.9</ele>
        <time>2023-02-12T09:43:20Z</time>
      </trkpt>
      <trkpt lat="44.3861" lon="4.2887">
        <ele>222</ele>
        <time>2023-02-12T09:43:25Z</time>
      </trkpt>
      <trkpt lat="44.38605" lon="4.28872">
        <ele>222.6</ele>
        <time>2023-02-12T09:43:31Z</time>
      </trkpt>
      <trkpt lat="44.386" lon="4.28875">
        <ele>223.3</ele>
        <time>2023-02-12T09:43:36Z</time>
      </trkpt>
      <trkpt lat="44.38594" lon="4.28878">
        <ele>223.1</ele>
        <time>2023-02-12T09:43:41Z</time>
      </trkpt>
      <trkpt lat="44.38589" lon="4.28878">
        <ele>223.3</ele>
        <time>2023-02-12T09:43:46Z</time>
      </trkpt>
      <trkpt lat="44.38588" lon="4.28878">
        <ele>223.9</ele>
        <time>2023-02-12T09:43:51Z</time>
      </trkpt>
      <trkpt lat="44.38589" lon="4.28879">
        <ele>224.1</ele>
        <time>2023-02-12T09:43:57Z</time>
      </trkpt>
      <trkpt lat="44.38589" lon="4.28879">
        <ele>224.1</ele>
        <time>2023-02-12T09:44:03Z</time>
      </trkpt>
      <trkpt lat="44.3859" lon="4.28879">
        <ele>224.2</ele>
        <time>2023-02-12T09:44:08Z</time>
      </trkpt>
      <trkpt lat="44.38589" lon="4.28878">
        <ele>223.6</ele>
        <time>2023-02-12T09:44:13Z</time>
      </trkpt>
      <trkpt lat="44.38589" lon="4.28878">
        <ele>224.1</ele>
        <time>2023-02-12T09:44:19Z</time>
      </trkpt>
      <trkpt lat="44.38589" lon="4.28878">
        <ele>224.6</ele>
        <time>2023-02-12T09:44:24Z</time>
      </trkpt>
      <trkpt lat="44.38589" lon="4.28878">
        <ele>224.2</ele>
        <time>2023-02-12T09:44:30Z</time>
      </trkpt>
      <trkpt lat="44.38589" lon="4.28879">
        <ele>224.3</ele>
        <time>2023-02-12T09:44:35Z</time>
      </trkpt>
      <trkpt lat="44.38588" lon="4.2888">
        <ele>223.9</ele>
        <time>2023-02-12T09:44:40Z</time>
      </trkpt>
      <trkpt lat="44.38588" lon="4.2888">
        <ele>223.3</ele>
        <time>2023-02-12T09:44:46Z</time>
      </trkpt>
      <trkpt lat="44.38588" lon="4.28881">
        <ele>223.8</ele>
        <time>2023-02-12T09:44:51Z</time>
      </trkpt>
      <trkpt lat="44.38588" lon="4.28881">
        <ele>224.2</ele>
        <time>2023-02-12T09:44:58Z</time>
      </trkpt>
      <trkpt lat="44.38587" lon="4.28881">
        <ele>223.5</ele>
        <time>2023-02-12T09:45:03Z</time>
      </trkpt>
      <trkpt lat="44.38582" lon="4.28879">
        <ele>222.6</ele>
        <time>2023-02-12T09:45:08Z</time>
      </trkpt>
      <trkpt lat="44.38579" lon="4.28877">
        <ele>220.8</ele>
        <time>2023-02-12T09:45:14Z</time>
      </trkpt>
      <trkpt lat="44.38575" lon="4.28876">
        <ele>220.2</ele>
        <time>2023-02-12T09:45:19Z</time>
      </trkpt>
      <trkpt lat="44.3857" lon="4.28877">
        <ele>219.4</ele>
        <time>2023-02-12T09:45:24Z</time>
      </trkpt>
      <trkpt lat="44.38566" lon="4.28878">
        <ele>218.7</ele>
        <time>2023-02-12T09:45:29Z</time>
      </trkpt>
      <trkpt lat="44.38561" lon="4.28878">
        <ele>217.9</ele>
        <time>2023-02-12T09:45:35Z</time>
      </trkpt>
      <trkpt lat="44.38561" lon="4.28877">
        <ele>216.7</ele>
        <time>2023-02-12T09:45:42Z</time>
      </trkpt>
      <trkpt lat="44.3856" lon="4.28877">
        <ele>217.1</ele>
        <time>2023-02-12T09:45:47Z</time>
      </trkpt>
      <trkpt lat="44.38559" lon="4.28877">
        <ele>216.8</ele>
        <time>2023-02-12T09:45:53Z</time>
      </trkpt>
      <trkpt lat="44.38557" lon="4.28877">
        <ele>216.2</ele>
        <time>2023-02-12T09:45:58Z</time>
      </trkpt>
      <trkpt lat="44.38555" lon="4.28876">
        <ele>216.1</ele>
        <time>2023-02-12T09:46:04Z</time>
      </trkpt>
      <trkpt lat="44.38549" lon="4.28872">
        <ele>214.6</ele>
        <time>2023-02-12T09:46:09Z</time>
      </trkpt>
      <trkpt lat="44.38542" lon="4.28871">
        <ele>213.5</ele>
        <time>2023-02-12T09:46:15Z</time>
      </trkpt>
      <trkpt lat="44.38537" lon="4.28871">
        <ele>212.7</ele>
        <time>2023-02-12T09:46:21Z</time>
      </trkpt>
      <trkpt lat="44.38539" lon="4.28871">
        <ele>213</ele>
        <time>2023-02-12T09:46:27Z</time>
      </trkpt>
      <trkpt lat="44.38538" lon="4.28871">
        <ele>213</ele>
        <time>2023-02-12T09:46:32Z</time>
      </trkpt>
      <trkpt lat="44.38535" lon="4.28869">
        <ele>211.5</ele>
        <time>2023-02-12T09:46:37Z</time>
      </trkpt>
      <trkpt lat="44.38528" lon="4.28868">
        <ele>210.4</ele>
        <time>2023-02-12T09:46:42Z</time>
      </trkpt>
      <trkpt lat="44.38523" lon="4.28867">
        <ele>209.5</ele>
        <time>2023-02-12T09:46:47Z</time>
      </trkpt>
      <trkpt lat="44.38519" lon="4.28864">
        <ele>208.6</ele>
        <time>2023-02-12T09:46:53Z</time>
      </trkpt>
      <trkpt lat="44.38515" lon="4.28861">
        <ele>207.4</ele>
        <time>2023-02-12T09:46:58Z</time>
      </trkpt>
      <trkpt lat="44.38509" lon="4.2886">
        <ele>206.3</ele>
        <time>2023-02-12T09:47:04Z</time>
      </trkpt>
      <trkpt lat="44.38503" lon="4.28858">
        <ele>204.5</ele>
        <time>2023-02-12T09:47:10Z</time>
      </trkpt>
      <trkpt lat="44.38497" lon="4.28857">
        <ele>203.8</ele>
        <time>2023-02-12T09:47:15Z</time>
      </trkpt>
      <trkpt lat="44.38491" lon="4.28857">
        <ele>203.4</ele>
        <time>2023-02-12T09:47:20Z</time>
      </trkpt>
      <trkpt lat="44.38486" lon="4.28856">
        <ele>203.1</ele>
        <time>2023-02-12T09:47:25Z</time>
      </trkpt>
      <trkpt lat="44.38479" lon="4.28855">
        <ele>202.5</ele>
        <time>2023-02-12T09:47:30Z</time>
      </trkpt>
      <trkpt lat="44.38472" lon="4.28854">
        <ele>201.5</ele>
        <time>2023-02-12T09:47:36Z</time>
      </trkpt>
      <trkpt lat="44.38466" lon="4.28856">
        <ele>200.1</ele>
        <time>2023-02-12T09:47:41Z</time>
      </trkpt>
      <trkpt lat="44.38459" lon="4.28857">
        <ele>199.9</ele>
        <time>2023-02-12T09:47:46Z</time>
      </trkpt>
      <trkpt lat="44.38453" lon="4.28859">
        <ele>199.8</ele>
        <time>2023-02-12T09:47:52Z</time>
      </trkpt>
      <trkpt lat="44.38447" lon="4.28863">
        <ele>199.3</ele>
        <time>2023-02-12T09:47:57Z</time>
      </trkpt>
      <trkpt lat="44.38441" lon="4.28865">
        <ele>198.9</ele>
        <time>2023-02-12T09:48:02Z</time>
      </trkpt>
      <trkpt lat="44.38435" lon="4.28865">
        <ele>196.8</ele>
        <time>2023-02-12T09:48:08Z</time>
      </trkpt>
      <trkpt lat="44.3843" lon="4.28865">
        <ele>195.9</ele>
        <time>2023-02-12T09:48:13Z</time>
      </trkpt>
      <trkpt lat="44.38423" lon="4.28863">
        <ele>194.9</ele>
        <time>2023-02-12T09:48:18Z</time>
      </trkpt>
      <trkpt lat="44.38417" lon="4.28861">
        <ele>194.3</ele>
        <time>2023-02-12T09:48:24Z</time>
      </trkpt>
      <trkpt lat="44.38412" lon="4.28858">
        <ele>194</ele>
        <time>2023-02-12T09:48:29Z</time>
      </trkpt>
      <trkpt lat="44.38408" lon="4.28856">
        <ele>192.9</ele>
        <time>2023-02-12T09:48:34Z</time>
      </trkpt>
      <trkpt lat="44.38403" lon="4.28851">
        <ele>191.5</ele>
        <time>2023-02-12T09:48:39Z</time>
      </trkpt>
      <trkpt lat="44.38397" lon="4.28846">
        <ele>189.6</ele>
        <time>2023-02-12T09:48:45Z</time>
      </trkpt>
      <trkpt lat="44.38394" lon="4.2884">
        <ele>188.5</ele>
        <time>2023-02-12T09:48:50Z</time>
      </trkpt>
      <trkpt lat="44.3839" lon="4.28834">
        <ele>187.3</ele>
        <time>2023-02-12T09:48:55Z</time>
      </trkpt>
      <trkpt lat="44.38386" lon="4.28829">
        <ele>186.4</ele>
        <time>2023-02-12T09:49:01Z</time>
      </trkpt>
      <trkpt lat="44.3838" lon="4.28824">
        <ele>185</ele>
        <time>2023-02-12T09:49:06Z</time>
      </trkpt>
      <trkpt lat="44.38376" lon="4.28817">
        <ele>184</ele>
        <time>2023-02-12T09:49:11Z</time>
      </trkpt>
      <trkpt lat="44.38371" lon="4.28811">
        <ele>182.9</ele>
        <time>2023-02-12T09:49:17Z</time>
      </trkpt>
      <trkpt lat="44.38367" lon="4.28804">
        <ele>182</ele>
        <time>2023-02-12T09:49:22Z</time>
      </trkpt>
      <trkpt lat="44.38362" lon="4.28799">
        <ele>180.7</ele>
        <time>2023-02-12T09:49:27Z</time>
      </trkpt>
      <trkpt lat="44.38357" lon="4.28795">
        <ele>179.5</ele>
        <time>2023-02-12T09:49:33Z</time>
      </trkpt>
      <trkpt lat="44.38352" lon="4.28789">
        <ele>178.4</ele>
        <time>2023-02-12T09:49:38Z</time>
      </trkpt>
      <trkpt lat="44.38346" lon="4.28782">
        <ele>177.2</ele>
        <time>2023-02-12T09:49:44Z</time>
      </trkpt>
      <trkpt lat="44.38341" lon="4.2878">
        <ele>176.3</ele>
        <time>2023-02-12T09:49:49Z</time>
      </trkpt>
      <trkpt lat="44.38335" lon="4.2878">
        <ele>175.4</ele>
        <time>2023-02-12T09:49:55Z</time>
      </trkpt>
      <trkpt lat="44.38329" lon="4.28777">
        <ele>174.2</ele>
        <time>2023-02-12T09:50:01Z</time>
      </trkpt>
      <trkpt lat="44.38324" lon="4.28775">
        <ele>173.5</ele>
        <time>2023-02-12T09:50:06Z</time>
      </trkpt>
      <trkpt lat="44.38318" lon="4.28772">
        <ele>172</ele>
        <time>2023-02-12T09:50:11Z</time>
      </trkpt>
      <trkpt lat="44.38314" lon="4.28767">
        <ele>171.2</ele>
        <time>2023-02-12T09:50:17Z</time>
      </trkpt>
      <trkpt lat="44.38313" lon="4.28766">
        <ele>171</ele>
        <time>2023-02-12T09:50:23Z</time>
      </trkpt>
      <trkpt lat="44.38314" lon="4.28765">
        <ele>170.5</ele>
        <time>2023-02-12T09:50:28Z</time>
      </trkpt>
      <trkpt lat="44.38321" lon="4.28765">
        <ele>169.4</ele>
        <time>2023-02-12T09:50:34Z</time>
      </trkpt>
      <trkpt lat="44.38327" lon="4.28764">
        <ele>167.4</ele>
        <time>2023-02-12T09:50:39Z</time>
      </trkpt>
      <trkpt lat="44.38332" lon="4.28762">
        <ele>166.8</ele>
        <time>2023-02-12T09:50:44Z</time>
      </trkpt>
      <trkpt lat="44.38337" lon="4.28761">
        <ele>166.1</ele>
        <time>2023-02-12T09:50:49Z</time>
      </trkpt>
      <trkpt lat="44.38341" lon="4.28761">
        <ele>164.6</ele>
        <time>2023-02-12T09:50:55Z</time>
      </trkpt>
      <trkpt lat="44.38345" lon="4.28757">
        <ele>164.2</ele>
        <time>2023-02-12T09:51:00Z</time>
      </trkpt>
      <trkpt lat="44.38348" lon="4.28753">
        <ele>162.5</ele>
        <time>2023-02-12T09:51:05Z</time>
      </trkpt>
      <trkpt lat="44.38352" lon="4.28749">
        <ele>161.1</ele>
        <time>2023-02-12T09:51:10Z</time>
      </trkpt>
      <trkpt lat="44.38354" lon="4.28744">
        <ele>160.3</ele>
        <time>2023-02-12T09:51:16Z</time>
      </trkpt>
      <trkpt lat="44.38357" lon="4.28739">
        <ele>158.8</ele>
        <time>2023-02-12T09:51:21Z</time>
      </trkpt>
      <trkpt lat="44.38357" lon="4.28733">
        <ele>157.9</ele>
        <time>2023-02-12T09:51:27Z</time>
      </trkpt>
      <trkpt lat="44.38355" lon="4.28724">
        <ele>157.3</ele>
        <time>2023-02-12T09:51:32Z</time>
      </trkpt>
      <trkpt lat="44.38351" lon="4.28717">
        <ele>156.2</ele>
        <time>2023-02-12T09:51:38Z</time>
      </trkpt>
      <trkpt lat="44.3835" lon="4.2871">
        <ele>155.2</ele>
        <time>2023-02-12T09:51:43Z</time>
      </trkpt>
      <trkpt lat="44.38347" lon="4.28708">
        <ele>154.3</ele>
        <time>2023-02-12T09:51:48Z</time>
      </trkpt>
      <trkpt lat="44.38345" lon="4.28707">
        <ele>154.2</ele>
        <time>2023-02-12T09:51:54Z</time>
      </trkpt>
      <trkpt lat="44.38345" lon="4.28707">
        <ele>154.5</ele>
        <time>2023-02-12T09:52:00Z</time>
      </trkpt>
      <trkpt lat="44.38345" lon="4.28707">
        <ele>154.3</ele>
        <time>2023-02-12T09:52:06Z</time>
      </trkpt>
      <trkpt lat="44.38346" lon="4.28707">
        <ele>154.2</ele>
        <time>2023-02-12T09:52:11Z</time>
      </trkpt>
      <trkpt lat="44.38346" lon="4.28705">
        <ele>154.4</ele>
        <time>2023-02-12T09:52:18Z</time>
      </trkpt>
      <trkpt lat="44.38346" lon="4.28705">
        <ele>154.1</ele>
        <time>2023-02-12T09:52:23Z</time>
      </trkpt>
      <trkpt lat="44.38346" lon="4.28705">
        <ele>154.3</ele>
        <time>2023-02-12T09:52:28Z</time>
      </trkpt>
      <trkpt lat="44.38346" lon="4.28705">
        <ele>154</ele>
        <time>2023-02-12T09:52:33Z</time>
      </trkpt>
      <trkpt lat="44.38345" lon="4.28704">
        <ele>153.3</ele>
        <time>2023-02-12T09:52:38Z</time>
      </trkpt>
      <trkpt lat="44.38345" lon="4.28702">
        <ele>154</ele>
        <time>2023-02-12T09:52:44Z</time>
      </trkpt>
      <trkpt lat="44.38343" lon="4.28701">
        <ele>154.1</ele>
        <time>2023-02-12T09:52:50Z</time>
      </trkpt>
      <trkpt lat="44.38338" lon="4.28701">
        <ele>154.1</ele>
        <time>2023-02-12T09:52:55Z</time>
      </trkpt>
      <trkpt lat="44.38336" lon="4.28702">
        <ele>154.1</ele>
        <time>2023-02-12T09:53:02Z</time>
      </trkpt>
      <trkpt lat="44.38336" lon="4.28702">
        <ele>153.9</ele>
        <time>2023-02-12T09:53:07Z</time>
      </trkpt>
      <trkpt lat="44.38336" lon="4.28702">
        <ele>154.3</ele>
        <time>2023-02-12T09:53:13Z</time>
      </trkpt>
      <trkpt lat="44.38337" lon="4.287">
        <ele>154.1</ele>
        <time>2023-02-12T09:53:18Z</time>
      </trkpt>
      <trkpt lat="44.38337" lon="4.28699">
        <ele>154</ele>
        <time>2023-02-12T09:53:24Z</time>
      </trkpt>
      <trkpt lat="44.38337" lon="4.287">
        <ele>154.4</ele>
        <time>2023-02-12T09:53:30Z</time>
      </trkpt>
      <trkpt lat="44.38338" lon="4.287">
        <ele>154.2</ele>
        <time>2023-02-12T09:53:36Z</time>
      </trkpt>
      <trkpt lat="44.38339" lon="4.287">
        <ele>154.6</ele>
        <time>2023-02-12T09:53:42Z</time>
      </trkpt>
      <trkpt lat="44.3834" lon="4.28702">
        <ele>154.5</ele>
        <time>2023-02-12T09:53:47Z</time>
      </trkpt>
      <trkpt lat="44.38341" lon="4.28703">
        <ele>154.4</ele>
        <time>2023-02-12T09:53:53Z</time>
      </trkpt>
      <trkpt lat="44.38341" lon="4.28702">
        <ele>154.4</ele>
        <time>2023-02-12T09:53:59Z</time>
      </trkpt>
      <trkpt lat="44.38341" lon="4.28702">
        <ele>153.9</ele>
        <time>2023-02-12T09:54:04Z</time>
      </trkpt>
      <trkpt lat="44.38342" lon="4.28703">
        <ele>154.8</ele>
        <time>2023-02-12T09:54:10Z</time>
      </trkpt>
      <trkpt lat="44.38343" lon="4.28704">
        <ele>154.5</ele>
        <time>2023-02-12T09:54:16Z</time>
      </trkpt>
      <trkpt lat="44.38343" lon="4.28706">
        <ele>154.5</ele>
        <time>2023-02-12T09:54:22Z</time>
      </trkpt>
      <trkpt lat="44.38343" lon="4.28706">
        <ele>154.1</ele>
        <time>2023-02-12T09:54:27Z</time>
      </trkpt>
      <trkpt lat="44.38345" lon="4.28705">
        <ele>153.7</ele>
        <time>2023-02-12T09:54:33Z</time>
      </trkpt>
      <trkpt lat="44.38347" lon="4.28706">
        <ele>153.6</ele>
        <time>2023-02-12T09:54:38Z</time>
      </trkpt>
      <trkpt lat="44.38349" lon="4.28707">
        <ele>154.5</ele>
        <time>2023-02-12T09:54:43Z</time>
      </trkpt>
      <trkpt lat="44.38354" lon="4.28708">
        <ele>155.5</ele>
        <time>2023-02-12T09:54:48Z</time>
      </trkpt>
      <trkpt lat="44.3836" lon="4.28707">
        <ele>155.9</ele>
        <time>2023-02-12T09:54:53Z</time>
      </trkpt>
      <trkpt lat="44.38362" lon="4.2871">
        <ele>156.4</ele>
        <time>2023-02-12T09:54:58Z</time>
      </trkpt>
      <trkpt lat="44.38364" lon="4.28712">
        <ele>156.2</ele>
        <time>2023-02-12T09:55:04Z</time>
      </trkpt>
      <trkpt lat="44.38368" lon="4.28715">
        <ele>156.3</ele>
        <time>2023-02-12T09:55:09Z</time>
      </trkpt>
      <trkpt lat="44.38371" lon="4.2872">
        <ele>156.3</ele>
        <time>2023-02-12T09:55:15Z</time>
      </trkpt>
      <trkpt lat="44.38376" lon="4.28723">
        <ele>155.9</ele>
        <time>2023-02-12T09:55:20Z</time>
      </trkpt>
      <trkpt lat="44.38379" lon="4.28728">
        <ele>155.7</ele>
        <time>2023-02-12T09:55:25Z</time>
      </trkpt>
      <trkpt lat="44.38383" lon="4.28735">
        <ele>154.9</ele>
        <time>2023-02-12T09:55:31Z</time>
      </trkpt>
      <trkpt lat="44.38387" lon="4.28741">
        <ele>154.2</ele>
        <time>2023-02-12T09:55:36Z</time>
      </trkpt>
      <trkpt lat="44.3839" lon="4.28747">
        <ele>153.7</ele>
        <time>2023-02-12T09:55:41Z</time>
      </trkpt>
      <trkpt lat="44.38394" lon="4.28751">
        <ele>153.6</ele>
        <time>2023-02-12T09:55:47Z</time>
      </trkpt>
      <trkpt lat="44.38399" lon="4.28757">
        <ele>153.6</ele>
        <time>2023-02-12T09:55:52Z</time>
      </trkpt>
      <trkpt lat="44.38402" lon="4.28759">
        <ele>153.3</ele>
        <time>2023-02-12T09:55:57Z</time>
      </trkpt>
      <trkpt lat="44.38406" lon="4.28762">
        <ele>153</ele>
        <time>2023-02-12T09:56:04Z</time>
      </trkpt>
      <trkpt lat="44.3841" lon="4.28763">
        <ele>153.2</ele>
        <time>2023-02-12T09:56:09Z</time>
      </trkpt>
      <trkpt lat="44.38413" lon="4.2876">
        <ele>153</ele>
        <time>2023-02-12T09:56:14Z</time>
      </trkpt>
      <trkpt lat="44.38414" lon="4.2876">
        <ele>153.4</ele>
        <time>2023-02-12T09:56:21Z</time>
      </trkpt>
      <trkpt lat="44.38414" lon="4.28759">
        <ele>153.4</ele>
        <time>2023-02-12T09:56:26Z</time>
      </trkpt>
      <trkpt lat="44.38414" lon="4.28759">
        <ele>153.4</ele>
        <time>2023-02-12T09:56:31Z</time>
      </trkpt>
      <trkpt lat="44.38414" lon="4.2876">
        <ele>153.4</ele>
        <time>2023-02-12T09:56:37Z</time>
      </trkpt>
      <trkpt lat="44.38416" lon="4.2876">
        <ele>152.3</ele>
        <time>2023-02-12T09:56:42Z</time>
      </trkpt>
      <trkpt lat="44.38417" lon="4.2876">
        <ele>152.5</ele>
        <time>2023-02-12T09:56:48Z</time>
      </trkpt>
      <trkpt lat="44.38418" lon="4.28758">
        <ele>152.2</ele>
        <time>2023-02-12T09:56:53Z</time>
      </trkpt>
      <trkpt lat="44.38419" lon="4.28757">
        <ele>152.5</ele>
        <time>2023-02-12T09:56:59Z</time>
      </trkpt>
      <trkpt lat="44.3842" lon="4.28755">
        <ele>153</ele>
        <time>2023-02-12T09:57:05Z</time>
      </trkpt>
      <trkpt lat="44.38421" lon="4.28754">
        <ele>152.3</ele>
        <time>2023-02-12T09:57:11Z</time>
      </trkpt>
      <trkpt lat="44.38422" lon="4.28753">
        <ele>152.5</ele>
        <time>2023-02-12T09:57:16Z</time>
      </trkpt>
      <trkpt lat="44.38423" lon="4.28753">
        <ele>152.3</ele>
        <time>2023-02-12T09:57:22Z</time>
      </trkpt>
      <trkpt lat="44.38425" lon="4.28753">
        <ele>152.5</ele>
        <time>2023-02-12T09:57:27Z</time>
      </trkpt>
      <trkpt lat="44.38428" lon="4.28753">
        <ele>152.6</ele>
        <time>2023-02-12T09:57:32Z</time>
      </trkpt>
      <trkpt lat="44.38431" lon="4.28753">
        <ele>152.5</ele>
        <time>2023-02-12T09:57:38Z</time>
      </trkpt>
      <trkpt lat="44.38434" lon="4.28751">
        <ele>152.5</ele>
        <time>2023-02-12T09:57:44Z</time>
      </trkpt>
      <trkpt lat="44.38436" lon="4.2875">
        <ele>152.3</ele>
        <time>2023-02-12T09:57:49Z</time>
      </trkpt>
      <trkpt lat="44.38438" lon="4.2875">
        <ele>152.1</ele>
        <time>2023-02-12T09:57:54Z</time>
      </trkpt>
      <trkpt lat="44.38442" lon="4.2875">
        <ele>152</ele>
        <time>2023-02-12T09:57:59Z</time>
      </trkpt>
      <trkpt lat="44.38446" lon="4.2875">
        <ele>152.3</ele>
        <time>2023-02-12T09:58:05Z</time>
      </trkpt>
      <trkpt lat="44.3845" lon="4.28749">
        <ele>151.7</ele>
        <time>2023-02-12T09:58:10Z</time>
      </trkpt>
      <trkpt lat="44.38453" lon="4.28748">
        <ele>151.5</ele>
        <time>2023-02-12T09:58:16Z</time>
      </trkpt>
      <trkpt lat="44.38456" lon="4.2875">
        <ele>151.3</ele>
        <time>2023-02-12T09:58:21Z</time>
      </trkpt>
      <trkpt lat="44.38458" lon="4.28751">
        <ele>151.7</ele>
        <time>2023-02-12T09:58:26Z</time>
      </trkpt>
      <trkpt lat="44.38459" lon="4.28751">
        <ele>151.9</ele>
        <time>2023-02-12T09:58:32Z</time>
      </trkpt>
      <trkpt lat="44.3846" lon="4.28751">
        <ele>151.9</ele>
        <time>2023-02-12T09:58:38Z</time>
      </trkpt>
      <trkpt lat="44.38461" lon="4.28752">
        <ele>151.3</ele>
        <time>2023-02-12T09:58:43Z</time>
      </trkpt>
      <trkpt lat="44.38463" lon="4.28753">
        <ele>151.7</ele>
        <time>2023-02-12T09:58:49Z</time>
      </trkpt>
      <trkpt lat="44.38464" lon="4.28753">
        <ele>151.3</ele>
        <time>2023-02-12T09:58:54Z</time>
      </trkpt>
      <trkpt lat="44.38464" lon="4.28753">
        <ele>151.4</ele>
        <time>2023-02-12T09:58:59Z</time>
      </trkpt>
      <trkpt lat="44.38466" lon="4.28752">
        <ele>151.4</ele>
        <time>2023-02-12T09:59:06Z</time>
      </trkpt>
      <trkpt lat="44.38469" lon="4.28752">
        <ele>151.6</ele>
        <time>2023-02-12T09:59:12Z</time>
      </trkpt>
      <trkpt lat="44.38468" lon="4.28752">
        <ele>151.8</ele>
        <time>2023-02-12T09:59:18Z</time>
      </trkpt>
      <trkpt lat="44.38468" lon="4.28751">
        <ele>151.4</ele>
        <time>2023-02-12T09:59:23Z</time>
      </trkpt>
      <trkpt lat="44.38469" lon="4.28752">
        <ele>151.1</ele>
        <time>2023-02-12T09:59:28Z</time>
      </trkpt>
      <trkpt lat="44.38471" lon="4.28754">
        <ele>151.3</ele>
        <time>2023-02-12T09:59:33Z</time>
      </trkpt>
      <trkpt lat="44.38474" lon="4.28755">
        <ele>151.6</ele>
        <time>2023-02-12T09:59:39Z</time>
      </trkpt>
      <trkpt lat="44.38476" lon="4.28754">
        <ele>152</ele>
        <time>2023-02-12T09:59:45Z</time>
      </trkpt>
      <trkpt lat="44.38476" lon="4.28754">
        <ele>151.7</ele>
        <time>2023-02-12T09:59:50Z</time>
      </trkpt>
      <trkpt lat="44.38476" lon="4.28755">
        <ele>151.8</ele>
        <time>2023-02-12T09:59:55Z</time>
      </trkpt>
      <trkpt lat="44.38478" lon="4.28756">
        <ele>151.8</ele>
        <time>2023-02-12T10:00:01Z</time>
      </trkpt>
      <trkpt lat="44.38482" lon="4.28757">
        <ele>151.8</ele>
        <time>2023-02-12T10:00:06Z</time>
      </trkpt>
      <trkpt lat="44.38485" lon="4.28756">
        <ele>152.1</ele>
        <time>2023-02-12T10:00:11Z</time>
      </trkpt>
      <trkpt lat="44.38491" lon="4.28753">
        <ele>152.4</ele>
        <time>2023-02-12T10:00:17Z</time>
      </trkpt>
      <trkpt lat="44.385" lon="4.28747">
        <ele>152.6</ele>
        <time>2023-02-12T10:00:22Z</time>
      </trkpt>
      <trkpt lat="44.38503" lon="4.28742">
        <ele>152.8</ele>
        <time>2023-02-12T10:00:27Z</time>
      </trkpt>
      <trkpt lat="44.38506" lon="4.28738">
        <ele>152.5</ele>
        <time>2023-02-12T10:00:32Z</time>
      </trkpt>
      <trkpt lat="44.38513" lon="4.28734">
        <ele>152.7</ele>
        <time>2023-02-12T10:00:38Z</time>
      </trkpt>
      <trkpt lat="44.38519" lon="4.2873">
        <ele>152.9</ele>
        <time>2023-02-12T10:00:43Z</time>
      </trkpt>
      <trkpt lat="44.38526" lon="4.28728">
        <ele>153.2</ele>
        <time>2023-02-12T10:00:48Z</time>
      </trkpt>
      <trkpt lat="44.38532" lon="4.28725">
        <ele>152.9</ele>
        <time>2023-02-12T10:00:53Z</time>
      </trkpt>
      <trkpt lat="44.38537" lon="4.28724">
        <ele>153.4</ele>
        <time>2023-02-12T10:00:58Z</time>
      </trkpt>
      <trkpt lat="44.38542" lon="4.28722">
        <ele>153.4</ele>
        <time>2023-02-12T10:01:04Z</time>
      </trkpt>
      <trkpt lat="44.38546" lon="4.28721">
        <ele>153.9</ele>
        <time>2023-02-12T10:01:09Z</time>
      </trkpt>
      <trkpt lat="44.38545" lon="4.28719">
        <ele>154</ele>
        <time>2023-02-12T10:01:15Z</time>
      </trkpt>
      <trkpt lat="44.38549" lon="4.2872">
        <ele>154.3</ele>
        <time>2023-02-12T10:01:20Z</time>
      </trkpt>
      <trkpt lat="44.38553" lon="4.28722">
        <ele>155</ele>
        <time>2023-02-12T10:01:27Z</time>
      </trkpt>
      <trkpt lat="44.38552" lon="4.28724">
        <ele>154.9</ele>
        <time>2023-02-12T10:01:32Z</time>
      </trkpt>
      <trkpt lat="44.38552" lon="4.28725">
        <ele>154.7</ele>
        <time>2023-02-12T10:01:37Z</time>
      </trkpt>
      <trkpt lat="44.38553" lon="4.28726">
        <ele>154.8</ele>
        <time>2023-02-12T10:01:42Z</time>
      </trkpt>
      <trkpt lat="44.38557" lon="4.28723">
        <ele>155.5</ele>
        <time>2023-02-12T10:01:48Z</time>
      </trkpt>
      <trkpt lat="44.38561" lon="4.28721">
        <ele>156.2</ele>
        <time>2023-02-12T10:01:53Z</time>
      </trkpt>
      <trkpt lat="44.38563" lon="4.28719">
        <ele>156.7</ele>
        <time>2023-02-12T10:01:59Z</time>
      </trkpt>
      <trkpt lat="44.38562" lon="4.2872">
        <ele>156.7</ele>
        <time>2023-02-12T10:02:04Z</time>
      </trkpt>
      <trkpt lat="44.38565" lon="4.28718">
        <ele>157.4</ele>
        <time>2023-02-12T10:02:09Z</time>
      </trkpt>
      <trkpt lat="44.38572" lon="4.28715">
        <ele>157.9</ele>
        <time>2023-02-12T10:02:14Z</time>
      </trkpt>
      <trkpt lat="44.38579" lon="4.28709">
        <ele>158.2</ele>
        <time>2023-02-12T10:02:21Z</time>
      </trkpt>
      <trkpt lat="44.38585" lon="4.28703">
        <ele>157.9</ele>
        <time>2023-02-12T10:02:26Z</time>
      </trkpt>
      <trkpt lat="44.38589" lon="4.28699">
        <ele>157.8</ele>
        <time>2023-02-12T10:02:32Z</time>
      </trkpt>
      <trkpt lat="44.38589" lon="4.28702">
        <ele>158</ele>
        <time>2023-02-12T10:02:38Z</time>
      </trkpt>
      <trkpt lat="44.38591" lon="4.287">
        <ele>157.7</ele>
        <time>2023-02-12T10:02:43Z</time>
      </trkpt>
      <trkpt lat="44.38596" lon="4.28692">
        <ele>157.7</ele>
        <time>2023-02-12T10:02:49Z</time>
      </trkpt>
      <trkpt lat="44.386" lon="4.28683">
        <ele>157.9</ele>
        <time>2023-02-12T10:02:54Z</time>
      </trkpt>
      <trkpt lat="44.38603" lon="4.28675">
        <ele>157.8</ele>
        <time>2023-02-12T10:03:00Z</time>
      </trkpt>
      <trkpt lat="44.38607" lon="4.28666">
        <ele>158</ele>
        <time>2023-02-12T10:03:05Z</time>
      </trkpt>
      <trkpt lat="44.38611" lon="4.28657">
        <ele>157.8</ele>
        <time>2023-02-12T10:03:10Z</time>
      </trkpt>
      <trkpt lat="44.38613" lon="4.28652">
        <ele>157.7</ele>
        <time>2023-02-12T10:03:16Z</time>
      </trkpt>
      <trkpt lat="44.38616" lon="4.28646">
        <ele>157.5</ele>
        <time>2023-02-12T10:03:21Z</time>
      </trkpt>
      <trkpt lat="44.38618" lon="4.28639">
        <ele>157.6</ele>
        <time>2023-02-12T10:03:26Z</time>
      </trkpt>
      <trkpt lat="44.38619" lon="4.28632">
        <ele>157.1</ele>
        <time>2023-02-12T10:03:31Z</time>
      </trkpt>
      <trkpt lat="44.38621" lon="4.28625">
        <ele>156.4</ele>
        <time>2023-02-12T10:03:36Z</time>
      </trkpt>
      <trkpt lat="44.38623" lon="4.28617">
        <ele>156.5</ele>
        <time>2023-02-12T10:03:41Z</time>
      </trkpt>
      <trkpt lat="44.38627" lon="4.28612">
        <ele>155.4</ele>
        <time>2023-02-12T10:03:47Z</time>
      </trkpt>
      <trkpt lat="44.38631" lon="4.28607">
        <ele>155.8</ele>
        <time>2023-02-12T10:03:52Z</time>
      </trkpt>
      <trkpt lat="44.38634" lon="4.28604">
        <ele>155.3</ele>
        <time>2023-02-12T10:03:57Z</time>
      </trkpt>
      <trkpt lat="44.38635" lon="4.28597">
        <ele>155.2</ele>
        <time>2023-02-12T10:04:03Z</time>
      </trkpt>
      <trkpt lat="44.38635" lon="4.28589">
        <ele>155.1</ele>
        <time>2023-02-12T10:04:08Z</time>
      </trkpt>
      <trkpt lat="44.38636" lon="4.28579">
        <ele>155.1</ele>
        <time>2023-02-12T10:04:14Z</time>
      </trkpt>
      <trkpt lat="44.38638" lon="4.28572">
        <ele>155.4</ele>
        <time>2023-02-12T10:04:20Z</time>
      </trkpt>
      <trkpt lat="44.38638" lon="4.28571">
        <ele>155.6</ele>
        <time>2023-02-12T10:04:25Z</time>
      </trkpt>
      <trkpt lat="44.38638" lon="4.28565">
        <ele>155.7</ele>
        <time>2023-02-12T10:04:30Z</time>
      </trkpt>
      <trkpt lat="44.38639" lon="4.28556">
        <ele>155.8</ele>
        <time>2023-02-12T10:04:36Z</time>
      </trkpt>
      <trkpt lat="44.38646" lon="4.28554">
        <ele>156.6</ele>
        <time>2023-02-12T10:04:42Z</time>
      </trkpt>
      <trkpt lat="44.3865" lon="4.28556">
        <ele>157.7</ele>
        <time>2023-02-12T10:04:48Z</time>
      </trkpt>
      <trkpt lat="44.38649" lon="4.28558">
        <ele>157.7</ele>
        <time>2023-02-12T10:04:53Z</time>
      </trkpt>
      <trkpt lat="44.38651" lon="4.28562">
        <ele>158.3</ele>
        <time>2023-02-12T10:04:58Z</time>
      </trkpt>
      <trkpt lat="44.38655" lon="4.28566">
        <ele>159.9</ele>
        <time>2023-02-12T10:05:04Z</time>
      </trkpt>
      <trkpt lat="44.3866" lon="4.28561">
        <ele>160.6</ele>
        <time>2023-02-12T10:05:09Z</time>
      </trkpt>
      <trkpt lat="44.38663" lon="4.28557">
        <ele>161.5</ele>
        <time>2023-02-12T10:05:14Z</time>
      </trkpt>
      <trkpt lat="44.38667" lon="4.28553">
        <ele>163.1</ele>
        <time>2023-02-12T10:05:20Z</time>
      </trkpt>
      <trkpt lat="44.38671" lon="4.2855">
        <ele>163.4</ele>
        <time>2023-02-12T10:05:25Z</time>
      </trkpt>
      <trkpt lat="44.38674" lon="4.28549">
        <ele>164.3</ele>
        <time>2023-02-12T10:05:30Z</time>
      </trkpt>
      <trkpt lat="44.38674" lon="4.28548">
        <ele>164.8</ele>
        <time>2023-02-12T10:05:35Z</time>
      </trkpt>
      <trkpt lat="44.38677" lon="4.28547">
        <ele>165.7</ele>
        <time>2023-02-12T10:05:40Z</time>
      </trkpt>
      <trkpt lat="44.38683" lon="4.28546">
        <ele>166.8</ele>
        <time>2023-02-12T10:05:46Z</time>
      </trkpt>
      <trkpt lat="44.38688" lon="4.28544">
        <ele>167.8</ele>
        <time>2023-02-12T10:05:51Z</time>
      </trkpt>
      <trkpt lat="44.38692" lon="4.28543">
        <ele>168.2</ele>
        <time>2023-02-12T10:05:56Z</time>
      </trkpt>
      <trkpt lat="44.38696" lon="4.28543">
        <ele>169.4</ele>
        <time>2023-02-12T10:06:02Z</time>
      </trkpt>
      <trkpt lat="44.387" lon="4.28541">
        <ele>171</ele>
        <time>2023-02-12T10:06:07Z</time>
      </trkpt>
      <trkpt lat="44.38706" lon="4.2854">
        <ele>171.8</ele>
        <time>2023-02-12T10:06:12Z</time>
      </trkpt>
      <trkpt lat="44.38709" lon="4.28539">
        <ele>173.2</ele>
        <time>2023-02-12T10:06:17Z</time>
      </trkpt>
      <trkpt lat="44.38713" lon="4.28539">
        <ele>173.6</ele>
        <time>2023-02-12T10:06:23Z</time>
      </trkpt>
      <trkpt lat="44.38713" lon="4.28539">
        <ele>174.7</ele>
        <time>2023-02-12T10:06:29Z</time>
      </trkpt>
      <trkpt lat="44.38713" lon="4.28537">
        <ele>174.8</ele>
        <time>2023-02-12T10:06:34Z</time>
      </trkpt>
      <trkpt lat="44.38714" lon="4.28537">
        <ele>174.8</ele>
        <time>2023-02-12T10:06:39Z</time>
      </trkpt>
      <trkpt lat="44.38715" lon="4.28537">
        <ele>175.2</ele>
        <time>2023-02-12T10:06:44Z</time>
      </trkpt>
      <trkpt lat="44.38719" lon="4.28536">
        <ele>176.3</ele>
        <time>2023-02-12T10:06:50Z</time>
      </trkpt>
      <trkpt lat="44.38724" lon="4.28535">
        <ele>176.8</ele>
        <time>2023-02-12T10:06:55Z</time>
      </trkpt>
      <trkpt lat="44.38729" lon="4.28533">
        <ele>177.9</ele>
        <time>2023-02-12T10:07:00Z</time>
      </trkpt>
      <trkpt lat="44.38733" lon="4.2853">
        <ele>178.5</ele>
        <time>2023-02-12T10:07:06Z</time>
      </trkpt>
      <trkpt lat="44.38738" lon="4.28529">
        <ele>180.1</ele>
        <time>2023-02-12T10:07:11Z</time>
      </trkpt>
      <trkpt lat="44.38742" lon="4.2853">
        <ele>181.3</ele>
        <time>2023-02-12T10:07:17Z</time>
      </trkpt>
      <trkpt lat="44.38747" lon="4.2853">
        <ele>181.7</ele>
        <time>2023-02-12T10:07:22Z</time>
      </trkpt>
      <trkpt lat="44.38751" lon="4.28533">
        <ele>182.8</ele>
        <time>2023-02-12T10:07:27Z</time>
      </trkpt>
      <trkpt lat="44.38754" lon="4.28533">
        <ele>183.9</ele>
        <time>2023-02-12T10:07:32Z</time>
      </trkpt>
      <trkpt lat="44.38759" lon="4.28533">
        <ele>184.1</ele>
        <time>2023-02-12T10:07:38Z</time>
      </trkpt>
      <trkpt lat="44.38764" lon="4.28532">
        <ele>185</ele>
        <time>2023-02-12T10:07:44Z</time>
      </trkpt>
      <trkpt lat="44.38769" lon="4.28532">
        <ele>184.9</ele>
        <time>2023-02-12T10:07:49Z</time>
      </trkpt>
      <trkpt lat="44.38773" lon="4.28534">
        <ele>185.5</ele>
        <time>2023-02-12T10:07:54Z</time>
      </trkpt>
      <trkpt lat="44.38778" lon="4.28538">
        <ele>185.8</ele>
        <time>2023-02-12T10:08:00Z</time>
      </trkpt>
      <trkpt lat="44.38784" lon="4.28541">
        <ele>185.9</ele>
        <time>2023-02-12T10:08:05Z</time>
      </trkpt>
      <trkpt lat="44.38786" lon="4.28545">
        <ele>186.4</ele>
        <time>2023-02-12T10:08:11Z</time>
      </trkpt>
      <trkpt lat="44.38786" lon="4.28545">
        <ele>186.2</ele>
        <time>2023-02-12T10:08:16Z</time>
      </trkpt>
      <trkpt lat="44.38786" lon="4.28546">
        <ele>186.5</ele>
        <time>2023-02-12T10:08:22Z</time>
      </trkpt>
      <trkpt lat="44.38786" lon="4.28546">
        <ele>186.4</ele>
        <time>2023-02-12T10:08:28Z</time>
      </trkpt>
      <trkpt lat="44.38785" lon="4.28544">
        <ele>186.1</ele>
        <time>2023-02-12T10:08:33Z</time>
      </trkpt>
      <trkpt lat="44.38785" lon="4.28544">
        <ele>186.5</ele>
        <time>2023-02-12T10:08:39Z</time>
      </trkpt>
      <trkpt lat="44.38785" lon="4.28543">
        <ele>186</ele>
        <time>2023-02-12T10:08:44Z</time>
      </trkpt>
      <trkpt lat="44.38785" lon="4.28543">
        <ele>186</ele>
        <time>2023-02-12T10:08:49Z</time>
      </trkpt>
      <trkpt lat="44.38785" lon="4.28543">
        <ele>186.2</ele>
        <time>2023-02-12T10:08:55Z</time>
      </trkpt>
      <trkpt lat="44.38785" lon="4.28543">
        <ele>185.9</ele>
        <time>2023-02-12T10:09:00Z</time>
      </trkpt>
      <trkpt lat="44.38785" lon="4.28543">
        <ele>186.3</ele>
        <time>2023-02-12T10:09:06Z</time>
      </trkpt>
      <trkpt lat="44.38787" lon="4.28546">
        <ele>186</ele>
        <time>2023-02-12T10:09:11Z</time>
      </trkpt>
      <trkpt lat="44.38791" lon="4.28555">
        <ele>186.6</ele>
        <time>2023-02-12T10:09:16Z</time>
      </trkpt>
      <trkpt lat="44.38795" lon="4.28558">
        <ele>186.6</ele>
        <time>2023-02-12T10:09:21Z</time>
      </trkpt>
      <trkpt lat="44.38796" lon="4.28565">
        <ele>186.9</ele>
        <time>2023-02-12T10:09:27Z</time>
      </trkpt>
      <trkpt lat="44.38796" lon="4.28567">
        <ele>187</ele>
        <time>2023-02-12T10:09:32Z</time>
      </trkpt>
      <trkpt lat="44.38797" lon="4.28571">
        <ele>188.1</ele>
        <time>2023-02-12T10:09:37Z</time>
      </trkpt>
      <trkpt lat="44.38801" lon="4.28578">
        <ele>188.1</ele>
        <time>2023-02-12T10:09:42Z</time>
      </trkpt>
      <trkpt lat="44.38805" lon="4.28584">
        <ele>188.5</ele>
        <time>2023-02-12T10:09:48Z</time>
      </trkpt>
      <trkpt lat="44.38809" lon="4.28591">
        <ele>189.5</ele>
        <time>2023-02-12T10:09:53Z</time>
      </trkpt>
      <trkpt lat="44.38812" lon="4.28597">
        <ele>189.9</ele>
        <time>2023-02-12T10:09:59Z</time>
      </trkpt>
      <trkpt lat="44.38816" lon="4.28602">
        <ele>191</ele>
        <time>2023-02-12T10:10:04Z</time>
      </trkpt>
      <trkpt lat="44.38819" lon="4.28607">
        <ele>190.9</ele>
        <time>2023-02-12T10:10:09Z</time>
      </trkpt>
      <trkpt lat="44.38819" lon="4.28608">
        <ele>191.5</ele>
        <time>2023-02-12T10:10:15Z</time>
      </trkpt>
      <trkpt lat="44.38819" lon="4.28608">
        <ele>192.2</ele>
        <time>2023-02-12T10:10:20Z</time>
      </trkpt>
      <trkpt lat="44.38819" lon="4.28609">
        <ele>191.9</ele>
        <time>2023-02-12T10:10:25Z</time>
      </trkpt>
      <trkpt lat="44.3882" lon="4.2861">
        <ele>191.3</ele>
        <time>2023-02-12T10:10:31Z</time>
      </trkpt>
      <trkpt lat="44.3882" lon="4.2861">
        <ele>191.4</ele>
        <time>2023-02-12T10:10:36Z</time>
      </trkpt>
      <trkpt lat="44.38821" lon="4.28614">
        <ele>191.1</ele>
        <time>2023-02-12T10:10:41Z</time>
      </trkpt>
      <trkpt lat="44.38822" lon="4.28621">
        <ele>191.4</ele>
        <time>2023-02-12T10:10:46Z</time>
      </trkpt>
      <trkpt lat="44.38823" lon="4.28622">
        <ele>191.6</ele>
        <time>2023-02-12T10:10:52Z</time>
      </trkpt>
      <trkpt lat="44.38825" lon="4.28626">
        <ele>191.8</ele>
        <time>2023-02-12T10:10:57Z</time>
      </trkpt>
      <trkpt lat="44.38828" lon="4.28627">
        <ele>191.5</ele>
        <time>2023-02-12T10:11:03Z</time>
      </trkpt>
      <trkpt lat="44.38828" lon="4.28628">
        <ele>191.5</ele>
        <time>2023-02-12T10:11:09Z</time>
      </trkpt>
      <trkpt lat="44.38827" lon="4.2863">
        <ele>191.7</ele>
        <time>2023-02-12T10:11:15Z</time>
      </trkpt>
      <trkpt lat="44.38829" lon="4.28632">
        <ele>191.5</ele>
        <time>2023-02-12T10:11:21Z</time>
      </trkpt>
      <trkpt lat="44.38829" lon="4.28632">
        <ele>191.7</ele>
        <time>2023-02-12T10:11:26Z</time>
      </trkpt>
      <trkpt lat="44.3883" lon="4.28631">
        <ele>191.6</ele>
        <time>2023-02-12T10:11:31Z</time>
      </trkpt>
      <trkpt lat="44.38831" lon="4.28631">
        <ele>191.8</ele>
        <time>2023-02-12T10:11:36Z</time>
      </trkpt>
      <trkpt lat="44.38831" lon="4.28634">
        <ele>191.5</ele>
        <time>2023-02-12T10:11:42Z</time>
      </trkpt>
      <trkpt lat="44.3883" lon="4.28635">
        <ele>192.1</ele>
        <time>2023-02-12T10:11:47Z</time>
      </trkpt>
      <trkpt lat="44.38829" lon="4.28635">
        <ele>191.8</ele>
        <time>2023-02-12T10:11:52Z</time>
      </trkpt>
      <trkpt lat="44.38829" lon="4.28636">
        <ele>191.9</ele>
        <time>2023-02-12T10:11:58Z</time>
      </trkpt>
      <trkpt lat="44.38829" lon="4.28636">
        <ele>191.8</ele>
        <time>2023-02-12T10:12:03Z</time>
      </trkpt>
      <trkpt lat="44.38831" lon="4.28631">
        <ele>190.8</ele>
        <time>2023-02-12T10:12:08Z</time>
      </trkpt>
      <trkpt lat="44.38837" lon="4.28629">
        <ele>190.4</ele>
        <time>2023-02-12T10:12:13Z</time>
      </trkpt>
      <trkpt lat="44.38838" lon="4.28627">
        <ele>190</ele>
        <time>2023-02-12T10:12:19Z</time>
      </trkpt>
      <trkpt lat="44.38839" lon="4.28627">
        <ele>189.9</ele>
        <time>2023-02-12T10:12:24Z</time>
      </trkpt>
      <trkpt lat="44.38846" lon="4.28629">
        <ele>188.8</ele>
        <time>2023-02-12T10:12:29Z</time>
      </trkpt>
      <trkpt lat="44.38851" lon="4.28633">
        <ele>188.2</ele>
        <time>2023-02-12T10:12:34Z</time>
      </trkpt>
      <trkpt lat="44.38858" lon="4.28636">
        <ele>187.2</ele>
        <time>2023-02-12T10:12:40Z</time>
      </trkpt>
      <trkpt lat="44.38864" lon="4.28638">
        <ele>186.3</ele>
        <time>2023-02-12T10:12:46Z</time>
      </trkpt>
      <trkpt lat="44.3887" lon="4.28637">
        <ele>185.8</ele>
        <time>2023-02-12T10:12:51Z</time>
      </trkpt>
      <trkpt lat="44.38874" lon="4.28639">
        <ele>185</ele>
        <time>2023-02-12T10:12:56Z</time>
      </trkpt>
      <trkpt lat="44.3888" lon="4.28642">
        <ele>184.5</ele>
        <time>2023-02-12T10:13:01Z</time>
      </trkpt>
      <trkpt lat="44.38886" lon="4.28647">
        <ele>183.1</ele>
        <time>2023-02-12T10:13:07Z</time>
      </trkpt>
      <trkpt lat="44.38891" lon="4.2865">
        <ele>182.5</ele>
        <time>2023-02-12T10:13:12Z</time>
      </trkpt>
      <trkpt lat="44.38896" lon="4.28654">
        <ele>181.8</ele>
        <time>2023-02-12T10:13:17Z</time>
      </trkpt>
      <trkpt lat="44.38901" lon="4.28659">
        <ele>181</ele>
        <time>2023-02-12T10:13:23Z</time>
      </trkpt>
      <trkpt lat="44.38907" lon="4.28664">
        <ele>180.3</ele>
        <time>2023-02-12T10:13:28Z</time>
      </trkpt>
      <trkpt lat="44.38911" lon="4.28668">
        <ele>179.5</ele>
        <time>2023-02-12T10:13:33Z</time>
      </trkpt>
      <trkpt lat="44.38916" lon="4.28672">
        <ele>178.6</ele>
        <time>2023-02-12T10:13:39Z</time>
      </trkpt>
      <trkpt lat="44.38922" lon="4.28677">
        <ele>178.1</ele>
        <time>2023-02-12T10:13:44Z</time>
      </trkpt>
      <trkpt lat="44.38925" lon="4.28683">
        <ele>177.6</ele>
        <time>2023-02-12T10:13:49Z</time>
      </trkpt>
      <trkpt lat="44.38926" lon="4.28682">
        <ele>177.3</ele>
        <time>2023-02-12T10:13:55Z</time>
      </trkpt>
      <trkpt lat="44.38929" lon="4.28687">
        <ele>176.5</ele>
        <time>2023-02-12T10:14:01Z</time>
      </trkpt>
      <trkpt lat="44.38934" lon="4.28693">
        <ele>176.1</ele>
        <time>2023-02-12T10:14:06Z</time>
      </trkpt>
      <trkpt lat="44.38938" lon="4.287">
        <ele>175.3</ele>
        <time>2023-02-12T10:14:12Z</time>
      </trkpt>
      <trkpt lat="44.38943" lon="4.28705">
        <ele>174.6</ele>
        <time>2023-02-12T10:14:17Z</time>
      </trkpt>
      <trkpt lat="44.38949" lon="4.28709">
        <ele>174.1</ele>
        <time>2023-02-12T10:14:22Z</time>
      </trkpt>
      <trkpt lat="44.38955" lon="4.28713">
        <ele>173.8</ele>
        <time>2023-02-12T10:14:27Z</time>
      </trkpt>
      <trkpt lat="44.38959" lon="4.28719">
        <ele>173</ele>
        <time>2023-02-12T10:14:32Z</time>
      </trkpt>
      <trkpt lat="44.38962" lon="4.28726">
        <ele>172.9</ele>
        <time>2023-02-12T10:14:37Z</time>
      </trkpt>
      <trkpt lat="44.38965" lon="4.2873">
        <ele>172.5</ele>
        <time>2023-02-12T10:14:42Z</time>
      </trkpt>
      <trkpt lat="44.38966" lon="4.2873">
        <ele>172.5</ele>
        <time>2023-02-12T10:14:48Z</time>
      </trkpt>
      <trkpt lat="44.38966" lon="4.28731">
        <ele>171.7</ele>
        <time>2023-02-12T10:14:54Z</time>
      </trkpt>
      <trkpt lat="44.38965" lon="4.28731">
        <ele>171.3</ele>
        <time>2023-02-12T10:14:59Z</time>
      </trkpt>
      <trkpt lat="44.38965" lon="4.28731">
        <ele>171.8</ele>
        <time>2023-02-12T10:15:04Z</time>
      </trkpt>
      <trkpt lat="44.38968" lon="4.28733">
        <ele>171.7</ele>
        <time>2023-02-12T10:15:09Z</time>
      </trkpt>
      <trkpt lat="44.3897" lon="4.28735">
        <ele>171.9</ele>
        <time>2023-02-12T10:15:14Z</time>
      </trkpt>
      <trkpt lat="44.38969" lon="4.28736">
        <ele>171.9</ele>
        <time>2023-02-12T10:15:19Z</time>
      </trkpt>
      <trkpt lat="44.38969" lon="4.28737">
        <ele>171.7</ele>
        <time>2023-02-12T10:15:25Z</time>
      </trkpt>
      <trkpt lat="44.3897" lon="4.28734">
        <ele>171.2</ele>
        <time>2023-02-12T10:15:30Z</time>
      </trkpt>
      <trkpt lat="44.3897" lon="4.28732">
        <ele>171.3</ele>
        <time>2023-02-12T10:15:35Z</time>
      </trkpt>
      <trkpt lat="44.38968" lon="4.2873">
        <ele>171.5</ele>
        <time>2023-02-12T10:15:41Z</time>
      </trkpt>
      <trkpt lat="44.38965" lon="4.28729">
        <ele>172</ele>
        <time>2023-02-12T10:15:46Z</time>
      </trkpt>
      <trkpt lat="44.38965" lon="4.28732">
        <ele>172.1</ele>
        <time>2023-02-12T10:15:52Z</time>
      </trkpt>
    </trkseg>
  </trk>
</gpx>